Observation data for Fort Lancaster on 09/12/2017      Previous  Date       Current Mesonet Observations  Soil Data  Daily Summary Page  Observations in Plain Language
KLA1 120500Z 15001KT 24/10 A3007 RMK A01 T02440102  RH  041%=      5-min Rain = 0
KLA1 120501Z 16001KT 24/10 A3007 RMK A01 T02440102  RH  041%=      5-min Rain = 0
KLA1 120502Z 16001KT 24/10 A3007 RMK A01 T02440102  RH  041%=      5-min Rain = 0
KLA1 120503Z 15000KT 24/10 A3007 RMK A01 T02420102  RH  041%=      5-min Rain = 0
KLA1 120504Z 11001KT 24/10 A3007 RMK A01 T02410102  RH  041%=      5-min Rain = 0
KLA1 120505Z 09000KT 24/10 A3007 RMK A01 T02400102  RH  042%=      5-min Rain = 0
KLA1 120506Z 08000KT 24/10 A3007 RMK A01 T02390102  RH  042%=      5-min Rain = 0
KLA1 120507Z 10001KT 24/10 A3007 RMK A01 T02380102  RH  042%=      5-min Rain = 0
KLA1 120508Z 12001KT 24/10 A3007 RMK A01 T02380102  RH  042%=      5-min Rain = 0
KLA1 120509Z 11000KT 24/10 A3007 RMK A01 T02360102  RH  043%=      5-min Rain = 0
KLA1 120510Z 00000KT 24/10 A3007 RMK A01 T02350102  RH  043%=      5-min Rain = 0
KLA1 120511Z 00000KT 23/10 A3007 RMK A01 T02340103  RH  044%=      5-min Rain = 0
KLA1 120512Z 00000KT 23/10 A3007 RMK A01 T02320103  RH  044%=      5-min Rain = 0
KLA1 120513Z 00000KT 23/10 A3007 RMK A01 T02310102  RH  044%=      5-min Rain = 0
KLA1 120514Z 24000KT 23/10 A3007 RMK A01 T02310102  RH  044%=      5-min Rain = 0
KLA1 120515Z 22000KT 23/10 A3007 RMK A01 T02310102  RH  044%=      5-min Rain = 0
KLA1 120516Z 23000KT 23/10 A3007 RMK A01 T02320103  RH  044%=      5-min Rain = 0
KLA1 120517Z 00000KT 23/10 A3007 RMK A01 T02310103  RH  044%=      5-min Rain = 0
KLA1 120518Z 00000KT 23/10 A3007 RMK A01 T02300102  RH  044%=      5-min Rain = 0
KLA1 120519Z 00000KT 23/10 A3007 RMK A01 T02300101  RH  044%=      5-min Rain = 0
KLA1 120520Z 23001KT 23/10 A3007 RMK A01 T02300101  RH  044%=      5-min Rain = 0
KLA1 120521Z 28001KT 23/10 A3007 RMK A01 T02310101  RH  044%=      5-min Rain = 0
KLA1 120522Z 29002KT 23/10 A3007 RMK A01 T02310103  RH  044%=      5-min Rain = 0
KLA1 120523Z 28002KT 23/10 A3007 RMK A01 T02310103  RH  044%=      5-min Rain = 0
KLA1 120524Z 29002KT 23/10 A3007 RMK A01 T02300103  RH  045%=      5-min Rain = 0
KLA1 120525Z 30001KT 23/10 A3007 RMK A01 T02290103  RH  045%=      5-min Rain = 0
KLA1 120526Z 27000KT 23/10 A3007 RMK A01 T02290103  RH  045%=      5-min Rain = 0
KLA1 120527Z 26000KT 23/10 A3007 RMK A01 T02280103  RH  045%=      5-min Rain = 0
KLA1 120528Z 27000KT 23/10 A3007 RMK A01 T02280103  RH  045%=      5-min Rain = 0
KLA1 120529Z 23000KT 23/10 A3007 RMK A01 T02270103  RH  046%=      5-min Rain = 0
KLA1 120530Z 20000KT 23/10 A3007 RMK A01 T02250103  RH  046%=      5-min Rain = 0
KLA1 120531Z 20000KT 22/10 A3007 RMK A01 T02240103  RH  046%=      5-min Rain = 0
KLA1 120532Z 20000KT 22/10 A3007 RMK A01 T02240103  RH  046%=      5-min Rain = 0
KLA1 120533Z 00000KT 22/10 A3007 RMK A01 T02230104  RH  047%=      5-min Rain = 0
KLA1 120534Z 00000KT 22/10 A3007 RMK A01 T02220104  RH  047%=      5-min Rain = 0
KLA1 120535Z 20000KT 22/11 A3007 RMK A01 T02210105  RH  048%=      5-min Rain = 0
KLA1 120536Z 19001KT 22/11 A3007 RMK A01 T02200105  RH  048%=      5-min Rain = 0
KLA1 120537Z 20002KT 22/10 A3006 RMK A01 T02170102  RH  048%=      5-min Rain = 0
KLA1 120538Z 22002KT 22/10 A3006 RMK A01 T02150102  RH  049%=      5-min Rain = 0
KLA1 120539Z 24001KT 21/10 A3006 RMK A01 T02130102  RH  049%=      5-min Rain = 0
KLA1 120540Z 26001KT 21/10 A3006 RMK A01 T02130102  RH  049%=      5-min Rain = 0
KLA1 120541Z 27001KT 21/10 A3006 RMK A01 T02120102  RH  050%=      5-min Rain = 0
KLA1 120542Z 28001KT 21/10 A3006 RMK A01 T02110103  RH  050%=      5-min Rain = 0
KLA1 120543Z 28001KT 21/10 A3006 RMK A01 T02110104  RH  050%=      5-min Rain = 0
KLA1 120544Z 28001KT 21/10 A3006 RMK A01 T02110104  RH  050%=      5-min Rain = 0
KLA1 120545Z 28001KT 21/10 A3006 RMK A01 T02100104  RH  051%=      5-min Rain = 0
KLA1 120546Z 28001KT 21/10 A3006 RMK A01 T02100104  RH  051%=      5-min Rain = 0
KLA1 120547Z 28001KT 21/10 A3006 RMK A01 T02090104  RH  051%=      5-min Rain = 0
KLA1 120548Z 28001KT 21/10 A3006 RMK A01 T02090104  RH  051%=      5-min Rain = 0
KLA1 120549Z 30001KT 21/10 A3006 RMK A01 T02090103  RH  051%=      5-min Rain = 0
KLA1 120550Z 31001KT 21/11 A3006 RMK A01 T02090105  RH  051%=      5-min Rain = 0
KLA1 120551Z 33001KT 21/11 A3006 RMK A01 T02080105  RH  051%=      5-min Rain = 0
KLA1 120552Z 30001KT 21/11 A3006 RMK A01 T02080106  RH  052%=      5-min Rain = 0
KLA1 120553Z 29001KT 21/11 A3006 RMK A01 T02070105  RH  052%=      5-min Rain = 0
KLA1 120554Z 30000KT 21/10 A3006 RMK A01 T02070104  RH  052%=      5-min Rain = 0
KLA1 120555Z 29001KT 21/10 A3006 RMK A01 T02050103  RH  052%=      5-min Rain = 0
KLA1 120556Z 29002KT 21/10 A3006 RMK A01 T02060103  RH  052%=      5-min Rain = 0
KLA1 120557Z 29000KT 21/10 A3006 RMK A01 T02060103  RH  052%=      5-min Rain = 0
KLA1 120558Z 30000KT 21/10 A3006 RMK A01 T02050104  RH  052%=      5-min Rain = 0
KLA1 120559Z 33001KT 20/10 A3006 RMK A01 T02040103  RH  053%=      5-min Rain = 0
KLA1 120600Z 00000KT 20/10 A3005 RMK A01 T02030103  RH  053%=      5-min Rain = 0
KLA1 120601Z 00000KT 20/10 A3005 RMK A01 T02030103  RH  053%=      5-min Rain = 0
KLA1 120602Z 03001KT 20/10 A3005 RMK A01 T02030103  RH  053%=      5-min Rain = 0
KLA1 120603Z 04000KT 20/10 A3005 RMK A01 T02020102  RH  053%=      5-min Rain = 0
KLA1 120604Z 01000KT 20/10 A3005 RMK A01 T02020102  RH  053%=      5-min Rain = 0
KLA1 120605Z 02001KT 20/10 A3005 RMK A01 T02020104  RH  053%=      5-min Rain = 0
KLA1 120606Z 01001KT 20/10 A3005 RMK A01 T02010103  RH  053%=      5-min Rain = 0
KLA1 120607Z 36001KT 20/10 A3005 RMK A01 T02000104  RH  054%=      5-min Rain = 0
KLA1 120608Z 36001KT 20/10 A3005 RMK A01 T01990104  RH  054%=      5-min Rain = 0
KLA1 120609Z 00000KT 20/10 A3005 RMK A01 T01990103  RH  054%=      5-min Rain = 0
KLA1 120610Z 00000KT 20/10 A3005 RMK A01 T01980103  RH  054%=      5-min Rain = 0
KLA1 120611Z 00000KT 20/10 A3005 RMK A01 T01980103  RH  054%=      5-min Rain = 0
KLA1 120612Z 00000KT 20/10 A3005 RMK A01 T01980103  RH  054%=      5-min Rain = 0
KLA1 120613Z 00000KT 20/10 A3005 RMK A01 T01980103  RH  054%=      5-min Rain = 0
KLA1 120614Z 00000KT 20/10 A3005 RMK A01 T01970104  RH  055%=      5-min Rain = 0
KLA1 120615Z 00000KT 20/10 A3005 RMK A01 T01960104  RH  055%=      5-min Rain = 0
KLA1 120616Z 00000KT 20/10 A3005 RMK A01 T01950103  RH  055%=      5-min Rain = 0
KLA1 120617Z 00000KT 20/10 A3005 RMK A01 T01950103  RH  055%=      5-min Rain = 0
KLA1 120618Z 00000KT 20/10 A3005 RMK A01 T01950104  RH  056%=      5-min Rain = 0
KLA1 120619Z 00000KT 19/10 A3005 RMK A01 T01940103  RH  056%=      5-min Rain = 0
KLA1 120620Z 00000KT 19/10 A3005 RMK A01 T01940104  RH  056%=      5-min Rain = 0
KLA1 120621Z 00000KT 19/10 A3005 RMK A01 T01940104  RH  056%=      5-min Rain = 0
KLA1 120622Z 00000KT 19/10 A3005 RMK A01 T01930102  RH  056%=      5-min Rain = 0
KLA1 120623Z 00000KT 19/10 A3005 RMK A01 T01930103  RH  056%=      5-min Rain = 0
KLA1 120624Z 00000KT 19/10 A3005 RMK A01 T01920102  RH  056%=      5-min Rain = 0
KLA1 120625Z 00000KT 19/10 A3005 RMK A01 T01910103  RH  056%=      5-min Rain = 0
KLA1 120626Z 00000KT 19/10 A3005 RMK A01 T01910103  RH  057%=      5-min Rain = 0
KLA1 120627Z 00000KT 19/10 A3005 RMK A01 T01900103  RH  057%=      5-min Rain = 0
KLA1 120628Z 00000KT 19/10 A3005 RMK A01 T01900103  RH  057%=      5-min Rain = 0
KLA1 120629Z 00000KT 19/10 A3005 RMK A01 T01900103  RH  057%=      5-min Rain = 0
KLA1 120630Z 00000KT 19/10 A3005 RMK A01 T01900103  RH  057%=      5-min Rain = 0
KLA1 120631Z 00000KT 19/10 A3005 RMK A01 T01900103  RH  057%=      5-min Rain = 0
KLA1 120632Z 00000KT 19/10 A3005 RMK A01 T01900103  RH  057%=      5-min Rain = 0
KLA1 120633Z 00000KT 19/10 A3005 RMK A01 T01900103  RH  057%=      5-min Rain = 0
KLA1 120634Z 00000KT 19/10 A3005 RMK A01 T01900103  RH  057%=      5-min Rain = 0
KLA1 120635Z 00000KT 19/10 A3005 RMK A01 T01900103  RH  057%=      5-min Rain = 0
KLA1 120636Z 00000KT 19/10 A3005 RMK A01 T01900104  RH  057%=      5-min Rain = 0
KLA1 120637Z 00000KT 19/10 A3005 RMK A01 T01900104  RH  057%=      5-min Rain = 0
KLA1 120638Z 00000KT 19/10 A3005 RMK A01 T01890103  RH  057%=      5-min Rain = 0
KLA1 120639Z 00000KT 19/10 A3005 RMK A01 T01890103  RH  057%=      5-min Rain = 0
KLA1 120640Z 00000KT 19/10 A3005 RMK A01 T01880103  RH  058%=      5-min Rain = 0
KLA1 120641Z 00000KT 19/10 A3005 RMK A01 T01870103  RH  058%=      5-min Rain = 0
KLA1 120642Z 00000KT 19/10 A3005 RMK A01 T01870103  RH  058%=      5-min Rain = 0
KLA1 120643Z 00000KT 19/10 A3005 RMK A01 T01860103  RH  058%=      5-min Rain = 0
KLA1 120644Z 00000KT 19/10 A3005 RMK A01 T01850103  RH  059%=      5-min Rain = 0
KLA1 120645Z 02001KT 19/10 A3005 RMK A01 T01850103  RH  059%=      5-min Rain = 0
KLA1 120646Z 02002KT 18/10 A3005 RMK A01 T01840104  RH  059%=      5-min Rain = 0
KLA1 120647Z 01002KT 18/10 A3005 RMK A01 T01840103  RH  059%=      5-min Rain = 0
KLA1 120648Z 01002KT 18/10 A3005 RMK A01 T01840102  RH  059%=      5-min Rain = 0
KLA1 120649Z 02001KT 18/10 A3005 RMK A01 T01830101  RH  059%=      5-min Rain = 0
KLA1 120650Z 03000KT 18/10 A3005 RMK A01 T01820101  RH  059%=      5-min Rain = 0
KLA1 120651Z 00000KT 18/10 A3005 RMK A01 T01820102  RH  059%=      5-min Rain = 0
KLA1 120652Z 00000KT 18/10 A3005 RMK A01 T01820102  RH  059%=      5-min Rain = 0
KLA1 120653Z 00000KT 18/10 A3005 RMK A01 T01820102  RH  059%=      5-min Rain = 0
KLA1 120654Z 00000KT 18/10 A3005 RMK A01 T01820102  RH  059%=      5-min Rain = 0
KLA1 120655Z 23000KT 18/10 A3005 RMK A01 T01820102  RH  060%=      5-min Rain = 0
KLA1 120656Z 23001KT 18/10 A3005 RMK A01 T01810101  RH  059%=      5-min Rain = 0
KLA1 120657Z 23001KT 18/10 A3005 RMK A01 T01800101  RH  060%=      5-min Rain = 0
KLA1 120658Z 23000KT 18/10 A3005 RMK A01 T01800099  RH  059%=      5-min Rain = 0
KLA1 120659Z 00000KT 18/10 A3005 RMK A01 T01790100  RH  060%=      5-min Rain = 0
KLA1 120700Z 00000KT 18/10 A3005 RMK A01 T01780101  RH  061%=      5-min Rain = 0
KLA1 120701Z 00000KT 18/10 A3005 RMK A01 T01780102  RH  061%=      5-min Rain = 0
KLA1 120702Z 00000KT 18/10 A3005 RMK A01 T01770103  RH  062%=      5-min Rain = 0
KLA1 120703Z 00000KT 18/10 A3005 RMK A01 T01770102  RH  062%=      5-min Rain = 0
KLA1 120704Z 00000KT 18/10 A3005 RMK A01 T01760102  RH  062%=      5-min Rain = 0
KLA1 120705Z 00000KT 18/10 A3005 RMK A01 T01760102  RH  062%=      5-min Rain = 0
KLA1 120706Z 11000KT 18/10 A3005 RMK A01 T01750102  RH  062%=      5-min Rain = 0
KLA1 120707Z 09001KT 17/10 A3005 RMK A01 T01740101  RH  062%=      5-min Rain = 0
KLA1 120708Z 06001KT 17/10 A3005 RMK A01 T01740102  RH  062%=      5-min Rain = 0
KLA1 120709Z 03001KT 17/10 A3005 RMK A01 T01740101  RH  062%=      5-min Rain = 0
KLA1 120710Z 03002KT 17/10 A3005 RMK A01 T01740101  RH  062%=      5-min Rain = 0
KLA1 120711Z 02002KT 17/10 A3005 RMK A01 T01740101  RH  062%=      5-min Rain = 0
KLA1 120712Z 02002KT 17/10 A3005 RMK A01 T01730101  RH  062%=      5-min Rain = 0
KLA1 120713Z 02002KT 17/10 A3005 RMK A01 T01730100  RH  062%=      5-min Rain = 0
KLA1 120714Z 02002KT 17/10 A3005 RMK A01 T01730100  RH  062%=      5-min Rain = 0
KLA1 120715Z 01002KT 17/10 A3005 RMK A01 T01720098  RH  062%=      5-min Rain = 0
KLA1 120716Z 33001KT 17/10 A3005 RMK A01 T01720097  RH  061%=      5-min Rain = 0
KLA1 120717Z 32000KT 17/10 A3005 RMK A01 T01720100  RH  063%=      5-min Rain = 0
KLA1 120718Z 30001KT 17/10 A3005 RMK A01 T01710102  RH  063%=      5-min Rain = 0
KLA1 120719Z 29001KT 17/10 A3005 RMK A01 T01710102  RH  064%=      5-min Rain = 0
KLA1 120720Z 27001KT 17/10 A3005 RMK A01 T01710102  RH  064%=      5-min Rain = 0
KLA1 120721Z 25001KT 17/10 A3005 RMK A01 T01710101  RH  064%=      5-min Rain = 0
KLA1 120722Z 24001KT 17/10 A3005 RMK A01 T01700101  RH  064%=      5-min Rain = 0
KLA1 120723Z 24001KT 17/10 A3005 RMK A01 T01700101  RH  064%=      5-min Rain = 0
KLA1 120724Z 25001KT 17/10 A3005 RMK A01 T01700101  RH  064%=      5-min Rain = 0
KLA1 120725Z 26001KT 17/10 A3005 RMK A01 T01700101  RH  064%=      5-min Rain = 0
KLA1 120726Z 27001KT 17/10 A3005 RMK A01 T01700101  RH  064%=      5-min Rain = 0
KLA1 120727Z 28001KT 17/10 A3005 RMK A01 T01690101  RH  064%=      5-min Rain = 0
KLA1 120728Z 29001KT 17/10 A3005 RMK A01 T01690101  RH  064%=      5-min Rain = 0
KLA1 120729Z 29001KT 17/10 A3005 RMK A01 T01690101  RH  064%=      5-min Rain = 0
KLA1 120730Z 29001KT 17/10 A3005 RMK A01 T01680100  RH  064%=      5-min Rain = 0
KLA1 120731Z 29000KT 17/10 A3004 RMK A01 T01680101  RH  064%=      5-min Rain = 0
KLA1 120732Z 00000KT 17/10 A3004 RMK A01 T01680101  RH  064%=      5-min Rain = 0
KLA1 120733Z 00000KT 17/10 A3004 RMK A01 T01680101  RH  065%=      5-min Rain = 0
KLA1 120734Z 00000KT 17/10 A3004 RMK A01 T01670101  RH  065%=      5-min Rain = 0
KLA1 120735Z 00000KT 17/10 A3004 RMK A01 T01670101  RH  065%=      5-min Rain = 0
KLA1 120736Z 00000KT 17/10 A3004 RMK A01 T01670101  RH  065%=      5-min Rain = 0
KLA1 120737Z 00000KT 17/10 A3005 RMK A01 T01670101  RH  065%=      5-min Rain = 0
KLA1 120738Z 00000KT 17/10 A3005 RMK A01 T01670101  RH  065%=      5-min Rain = 0
KLA1 120739Z 00000KT 17/10 A3005 RMK A01 T01660100  RH  065%=      5-min Rain = 0
KLA1 120740Z 27000KT 17/10 A3005 RMK A01 T01660100  RH  065%=      5-min Rain = 0
KLA1 120741Z 26001KT 17/10 A3005 RMK A01 T01650100  RH  065%=      5-min Rain = 0
KLA1 120742Z 26002KT 17/10 A3005 RMK A01 T01650099  RH  065%=      5-min Rain = 0
KLA1 120743Z 27001KT 17/10 A3004 RMK A01 T01660099  RH  065%=      5-min Rain = 0
KLA1 120744Z 27002KT 17/10 A3004 RMK A01 T01650099  RH  065%=      5-min Rain = 0
KLA1 120745Z 27002KT 16/10 A3004 RMK A01 T01640099  RH  065%=      5-min Rain = 0
KLA1 120746Z 27002KT 16/10 A3004 RMK A01 T01640099  RH  065%=      5-min Rain = 0
KLA1 120747Z 27001KT 16/10 A3004 RMK A01 T01640100  RH  066%=      5-min Rain = 0
KLA1 120748Z 28001KT 16/10 A3004 RMK A01 T01640100  RH  066%=      5-min Rain = 0
KLA1 120749Z 28001KT 16/10 A3004 RMK A01 T01630100  RH  066%=      5-min Rain = 0
KLA1 120750Z 28001KT 16/10 A3004 RMK A01 T01630100  RH  066%=      5-min Rain = 0
KLA1 120751Z 28000KT 16/10 A3004 RMK A01 T01630100  RH  066%=      5-min Rain = 0
KLA1 120752Z 00000KT 16/10 A3004 RMK A01 T01630100  RH  066%=      5-min Rain = 0
KLA1 120753Z 28000KT 16/10 A3004 RMK A01 T01630100  RH  066%=      5-min Rain = 0
KLA1 120754Z 00000KT 16/10 A3004 RMK A01 T01630100  RH  066%=      5-min Rain = 0
KLA1 120755Z 00000KT 16/10 A3004 RMK A01 T01630101  RH  066%=      5-min Rain = 0
KLA1 120756Z 00000KT 16/10 A3004 RMK A01 T01630101  RH  067%=      5-min Rain = 0
KLA1 120757Z 00000KT 16/10 A3004 RMK A01 T01630101  RH  067%=      5-min Rain = 0
KLA1 120758Z 00000KT 16/10 A3004 RMK A01 T01620101  RH  067%=      5-min Rain = 0
KLA1 120759Z 00000KT 16/10 A3004 RMK A01 T01610100  RH  067%=      5-min Rain = 0
KLA1 120800Z 00000KT 16/10 A3004 RMK A01 T01610100  RH  067%=      5-min Rain = 0
KLA1 120801Z 00000KT 16/10 A3004 RMK A01 T01600098  RH  067%=      5-min Rain = 0
KLA1 120802Z 00000KT 16/10 A3004 RMK A01 T01600099  RH  067%=      5-min Rain = 0
KLA1 120803Z 00000KT 16/10 A3004 RMK A01 T01590099  RH  067%=      5-min Rain = 0
KLA1 120804Z 00000KT 16/10 A3004 RMK A01 T01590098  RH  067%=      5-min Rain = 0
KLA1 120805Z 28000KT 16/10 A3004 RMK A01 T01590096  RH  066%=      5-min Rain = 0
KLA1 120806Z 27001KT 16/10 A3004 RMK A01 T01590098  RH  067%=      5-min Rain = 0
KLA1 120807Z 27002KT 16/10 A3004 RMK A01 T01590098  RH  067%=      5-min Rain = 0
KLA1 120808Z 28002KT 16/10 A3004 RMK A01 T01590097  RH  067%=      5-min Rain = 0
KLA1 120809Z 28003KT 16/10 A3004 RMK A01 T01590098  RH  067%=      5-min Rain = 0
KLA1 120810Z 28003KT 16/10 A3004 RMK A01 T01590098  RH  067%=      5-min Rain = 0
KLA1 120811Z 28003KT 16/10 A3004 RMK A01 T01590098  RH  067%=      5-min Rain = 0
KLA1 120812Z 28003KT 16/10 A3004 RMK A01 T01590099  RH  067%=      5-min Rain = 0
KLA1 120813Z 28003KT 16/10 A3004 RMK A01 T01590099  RH  067%=      5-min Rain = 0
KLA1 120814Z 28003KT 16/10 A3004 RMK A01 T01590099  RH  067%=      5-min Rain = 0
KLA1 120815Z 28003KT 16/10 A3004 RMK A01 T01590099  RH  067%=      5-min Rain = 0
KLA1 120816Z 28003KT 16/10 A3004 RMK A01 T01600099  RH  067%=      5-min Rain = 0
KLA1 120817Z 29003KT 16/10 A3004 RMK A01 T01600098  RH  067%=      5-min Rain = 0
KLA1 120818Z 30002KT 16/10 A3004 RMK A01 T01600098  RH  067%=      5-min Rain = 0
KLA1 120819Z 30002KT 16/10 A3004 RMK A01 T01600098  RH  067%=      5-min Rain = 0
KLA1 120820Z 31002KT 16/10 A3004 RMK A01 T01600099  RH  067%=      5-min Rain = 0
KLA1 120821Z 32002KT 16/10 A3004 RMK A01 T01600099  RH  067%=      5-min Rain = 0
KLA1 120822Z 32002KT 16/10 A3004 RMK A01 T01600098  RH  067%=      5-min Rain = 0
KLA1 120823Z 32002KT 16/10 A3004 RMK A01 T01590097  RH  067%=      5-min Rain = 0
KLA1 120824Z 34002KT 16/10 A3004 RMK A01 T01580098  RH  068%=      5-min Rain = 0
KLA1 120825Z 35002KT 16/10 A3004 RMK A01 T01580099  RH  068%=      5-min Rain = 0
KLA1 120826Z 35002KT 16/10 A3004 RMK A01 T01580099  RH  068%=      5-min Rain = 0
KLA1 120827Z 01002KT 16/10 A3004 RMK A01 T01580099  RH  068%=      5-min Rain = 0
KLA1 120828Z 01002KT 16/10 A3004 RMK A01 T01580098  RH  068%=      5-min Rain = 0
KLA1 120829Z 01002KT 16/10 A3004 RMK A01 T01580098  RH  068%=      5-min Rain = 0
KLA1 120830Z 02002KT 16/10 A3004 RMK A01 T01580099  RH  068%=      5-min Rain = 0
KLA1 120831Z 03002KT 16/10 A3004 RMK A01 T01580099  RH  068%=      5-min Rain = 0
KLA1 120832Z 02002KT 16/10 A3004 RMK A01 T01580098  RH  068%=      5-min Rain = 0
KLA1 120833Z 02002KT 16/10 A3004 RMK A01 T01580098  RH  068%=      5-min Rain = 0
KLA1 120834Z 01002KT 16/10 A3004 RMK A01 T01580098  RH  068%=      5-min Rain = 0
KLA1 120835Z 02002KT 16/10 A3004 RMK A01 T01580099  RH  068%=      5-min Rain = 0
KLA1 120836Z 02002KT 16/10 A3004 RMK A01 T01590100  RH  068%=      5-min Rain = 0
KLA1 120837Z 01002KT 16/10 A3004 RMK A01 T01600100  RH  067%=      5-min Rain = 0
KLA1 120838Z 01002KT 16/10 A3004 RMK A01 T01610100  RH  067%=      5-min Rain = 0
KLA1 120839Z 35001KT 16/10 A3004 RMK A01 T01620100  RH  067%=      5-min Rain = 0
KLA1 120840Z 35001KT 16/10 A3004 RMK A01 T01630100  RH  066%=      5-min Rain = 0
KLA1 120841Z 35002KT 16/10 A3004 RMK A01 T01640100  RH  066%=      5-min Rain = 0
KLA1 120842Z 00004KT 16/10 A3004 RMK A01 T01640101  RH  066%=      5-min Rain = 0
KLA1 120843Z 36004KT 16/10 A3004 RMK A01 T01640101  RH  066%=      5-min Rain = 0
KLA1 120844Z 35003KT 17/10 A3004 RMK A01 T01650100  RH  066%=      5-min Rain = 0
KLA1 120845Z 34002KT 17/10 A3004 RMK A01 T01650101  RH  066%=      5-min Rain = 0
KLA1 120846Z 00002KT 16/10 A3004 RMK A01 T01640100  RH  066%=      5-min Rain = 0
KLA1 120847Z 35002KT 16/10 A3004 RMK A01 T01640100  RH  066%=      5-min Rain = 0
KLA1 120848Z 35002KT 16/10 A3004 RMK A01 T01640099  RH  066%=      5-min Rain = 0
KLA1 120849Z 01001KT 16/10 A3004 RMK A01 T01640100  RH  066%=      5-min Rain = 0
KLA1 120850Z 03001KT 16/10 A3004 RMK A01 T01640100  RH  066%=      5-min Rain = 0
KLA1 120851Z 02002KT 16/10 A3004 RMK A01 T01630099  RH  066%=      5-min Rain = 0
KLA1 120852Z 02001KT 16/10 A3004 RMK A01 T01630099  RH  066%=      5-min Rain = 0
KLA1 120853Z 02001KT 16/10 A3003 RMK A01 T01630099  RH  066%=      5-min Rain = 0
KLA1 120854Z 01002KT 16/10 A3003 RMK A01 T01620098  RH  065%=      5-min Rain = 0
KLA1 120855Z 02002KT 16/10 A3003 RMK A01 T01620099  RH  066%=      5-min Rain = 0
KLA1 120856Z 01002KT 16/10 A3003 RMK A01 T01610099  RH  067%=      5-min Rain = 0
KLA1 120857Z 02002KT 16/10 A3003 RMK A01 T01610099  RH  067%=      5-min Rain = 0
KLA1 120858Z 03001KT 16/10 A3003 RMK A01 T01610100  RH  067%=      5-min Rain = 0
KLA1 120859Z 03000KT 16/10 A3003 RMK A01 T01600100  RH  067%=      5-min Rain = 0
KLA1 120900Z 03000KT 16/10 A3003 RMK A01 T01600099  RH  067%=      5-min Rain = 0
KLA1 120901Z 24000KT 16/10 A3003 RMK A01 T01590098  RH  067%=      5-min Rain = 0
KLA1 120902Z 23001KT 16/10 A3003 RMK A01 T01590097  RH  067%=      5-min Rain = 0
KLA1 120903Z 23001KT 16/10 A3003 RMK A01 T01580098  RH  067%=      5-min Rain = 0
KLA1 120904Z 23001KT 16/10 A3003 RMK A01 T01580099  RH  068%=      5-min Rain = 0
KLA1 120905Z 23000KT 16/10 A3003 RMK A01 T01580099  RH  068%=      5-min Rain = 0
KLA1 120906Z 00000KT 16/10 A3003 RMK A01 T01580099  RH  068%=      5-min Rain = 0
KLA1 120907Z 00000KT 16/10 A3003 RMK A01 T01580099  RH  068%=      5-min Rain = 0
KLA1 120908Z 00000KT 16/10 A3003 RMK A01 T01580099  RH  068%=      5-min Rain = 0
KLA1 120909Z 00000KT 16/10 A3003 RMK A01 T01570099  RH  068%=      5-min Rain = 0
KLA1 120910Z 00000KT 16/10 A3003 RMK A01 T01570100  RH  069%=      5-min Rain = 0
KLA1 120911Z 00000KT 16/10 A3003 RMK A01 T01560100  RH  069%=      5-min Rain = 0
KLA1 120912Z 00000KT 16/10 A3003 RMK A01 T01560099  RH  069%=      5-min Rain = 0
KLA1 120913Z 00000KT 16/10 A3003 RMK A01 T01560098  RH  069%=      5-min Rain = 0
KLA1 120914Z 00000KT 16/10 A3003 RMK A01 T01550097  RH  068%=      5-min Rain = 0
KLA1 120915Z 00000KT 16/10 A3003 RMK A01 T01550096  RH  068%=      5-min Rain = 0
KLA1 120916Z 00000KT 16/10 A3003 RMK A01 T01550097  RH  068%=      5-min Rain = 0
KLA1 120917Z 00000KT 15/10 A3003 RMK A01 T01540097  RH  069%=      5-min Rain = 0
KLA1 120918Z 00000KT 15/10 A3003 RMK A01 T01540097  RH  069%=      5-min Rain = 0
KLA1 120919Z 00000KT 15/10 A3003 RMK A01 T01530098  RH  069%=      5-min Rain = 0
KLA1 120920Z 00000KT 15/10 A3003 RMK A01 T01530097  RH  069%=      5-min Rain = 0
KLA1 120921Z 00000KT 15/10 A3003 RMK A01 T01530098  RH  070%=      5-min Rain = 0
KLA1 120922Z 00000KT 15/10 A3003 RMK A01 T01520098  RH  070%=      5-min Rain = 0
KLA1 120923Z 00000KT 15/10 A3003 RMK A01 T01520097  RH  070%=      5-min Rain = 0
KLA1 120924Z 00000KT 15/10 A3003 RMK A01 T01510098  RH  070%=      5-min Rain = 0
KLA1 120925Z 00000KT 15/10 A3003 RMK A01 T01510098  RH  070%=      5-min Rain = 0
KLA1 120926Z 00000KT 15/10 A3003 RMK A01 T01510098  RH  070%=      5-min Rain = 0
KLA1 120927Z 00000KT 15/10 A3003 RMK A01 T01510097  RH  070%=      5-min Rain = 0
KLA1 120928Z 00000KT 15/10 A3003 RMK A01 T01510098  RH  071%=      5-min Rain = 0
KLA1 120929Z 11001KT 15/10 A3003 RMK A01 T01510098  RH  070%=      5-min Rain = 0
KLA1 120930Z 11001KT 15/10 A3003 RMK A01 T01510097  RH  070%=      5-min Rain = 0
KLA1 120931Z 10001KT 15/10 A3003 RMK A01 T01510098  RH  070%=      5-min Rain = 0
KLA1 120932Z 11001KT 15/10 A3003 RMK A01 T01510098  RH  070%=      5-min Rain = 0
KLA1 120933Z 11001KT 15/10 A3003 RMK A01 T01510098  RH  070%=      5-min Rain = 0
KLA1 120934Z 11001KT 15/10 A3003 RMK A01 T01520098  RH  070%=      5-min Rain = 0
KLA1 120935Z 11001KT 15/10 A3003 RMK A01 T01520098  RH  070%=      5-min Rain = 0
KLA1 120936Z 11001KT 15/10 A3003 RMK A01 T01520098  RH  070%=      5-min Rain = 0
KLA1 120937Z 11001KT 15/10 A3003 RMK A01 T01520099  RH  070%=      5-min Rain = 0
KLA1 120938Z 11001KT 15/10 A3003 RMK A01 T01520099  RH  070%=      5-min Rain = 0
KLA1 120939Z 11000KT 15/10 A3003 RMK A01 T01520099  RH  071%=      5-min Rain = 0
KLA1 120940Z 00000KT 15/10 A3003 RMK A01 T01520099  RH  071%=      5-min Rain = 0
KLA1 120941Z 00000KT 15/10 A3003 RMK A01 T01520099  RH  071%=      5-min Rain = 0
KLA1 120942Z 00000KT 15/10 A3003 RMK A01 T01530099  RH  070%=      5-min Rain = 0
KLA1 120943Z 00000KT 15/10 A3003 RMK A01 T01530098  RH  070%=      5-min Rain = 0
KLA1 120944Z 00000KT 15/10 A3003 RMK A01 T01510097  RH  070%=      5-min Rain = 0
KLA1 120945Z 00000KT 15/10 A3003 RMK A01 T01510099  RH  071%=      5-min Rain = 0
KLA1 120946Z 06000KT 15/10 A3003 RMK A01 T01500099  RH  071%=      5-min Rain = 0
KLA1 120947Z 06001KT 15/10 A3003 RMK A01 T01500099  RH  072%=      5-min Rain = 0
KLA1 120948Z 07001KT 15/10 A3003 RMK A01 T01490100  RH  072%=      5-min Rain = 0
KLA1 120949Z 07001KT 15/10 A3003 RMK A01 T01480098  RH  072%=      5-min Rain = 0
KLA1 120950Z 06001KT 15/10 A3003 RMK A01 T01480097  RH  071%=      5-min Rain = 0
KLA1 120951Z 05001KT 15/10 A3003 RMK A01 T01470098  RH  072%=      5-min Rain = 0
KLA1 120952Z 05000KT 15/10 A3003 RMK A01 T01480099  RH  073%=      5-min Rain = 0
KLA1 120953Z 05000KT 15/10 A3003 RMK A01 T01490099  RH  072%=      5-min Rain = 0
KLA1 120954Z 03001KT 15/10 A3003 RMK A01 T01510099  RH  071%=      5-min Rain = 0
KLA1 120955Z 02001KT 15/10 A3003 RMK A01 T01520100  RH  071%=      5-min Rain = 0
KLA1 120956Z 02002KT 15/10 A3003 RMK A01 T01540100  RH  070%=      5-min Rain = 0
KLA1 120957Z 02002KT 16/10 A3003 RMK A01 T01550100  RH  070%=      5-min Rain = 0
KLA1 120958Z 01002KT 16/10 A3003 RMK A01 T01560100  RH  069%=      5-min Rain = 0
KLA1 120959Z 01002KT 16/10 A3003 RMK A01 T01570100  RH  069%=      5-min Rain = 0
KLA1 121000Z 01002KT 16/10 A3003 RMK A01 T01580101  RH  068%=      5-min Rain = 0
KLA1 121001Z 01002KT 16/10 A3003 RMK A01 T01590100  RH  068%=      5-min Rain = 0
KLA1 121002Z 01002KT 16/10 A3003 RMK A01 T01590100  RH  068%=      5-min Rain = 0
KLA1 121003Z 36002KT 16/10 A3003 RMK A01 T01590099  RH  068%=      5-min Rain = 0
KLA1 121004Z 34001KT 16/10 A3003 RMK A01 T01570099  RH  068%=      5-min Rain = 0
KLA1 121005Z 33001KT 16/10 A3003 RMK A01 T01570099  RH  069%=      5-min Rain = 0
KLA1 121006Z 33001KT 16/10 A3003 RMK A01 T01570099  RH  068%=      5-min Rain = 0
KLA1 121007Z 33000KT 16/10 A3003 RMK A01 T01570099  RH  068%=      5-min Rain = 0
KLA1 121008Z 00000KT 16/10 A3003 RMK A01 T01570098  RH  068%=      5-min Rain = 0
KLA1 121009Z 00000KT 16/10 A3003 RMK A01 T01570098  RH  068%=      5-min Rain = 0
KLA1 121010Z 00000KT 16/10 A3003 RMK A01 T01570099  RH  068%=      5-min Rain = 0
KLA1 121011Z 00000KT 16/10 A3003 RMK A01 T01560098  RH  069%=      5-min Rain = 0
KLA1 121012Z 00000KT 15/10 A3003 RMK A01 T01540099  RH  069%=      5-min Rain = 0
KLA1 121013Z 00000KT 15/10 A3003 RMK A01 T01530099  RH  070%=      5-min Rain = 0
KLA1 121014Z 27000KT 15/10 A3003 RMK A01 T01520099  RH  070%=      5-min Rain = 0
KLA1 121015Z 27001KT 15/10 A3003 RMK A01 T01520098  RH  070%=      5-min Rain = 0
KLA1 121016Z 27001KT 15/10 A3003 RMK A01 T01510098  RH  070%=      5-min Rain = 0
KLA1 121017Z 28001KT 15/10 A3003 RMK A01 T01510098  RH  070%=      5-min Rain = 0
KLA1 121018Z 28001KT 15/10 A3003 RMK A01 T01500096  RH  070%=      5-min Rain = 0
KLA1 121019Z 28001KT 15/10 A3003 RMK A01 T01490095  RH  070%=      5-min Rain = 0
KLA1 121020Z 28001KT 15/10 A3003 RMK A01 T01490095  RH  070%=      5-min Rain = 0
KLA1 121021Z 28001KT 15/09 A3003 RMK A01 T01480094  RH  070%=      5-min Rain = 0
KLA1 121022Z 27002KT 15/09 A3003 RMK A01 T01470094  RH  070%=      5-min Rain = 0
KLA1 121023Z 26002KT 15/09 A3003 RMK A01 T01460094  RH  071%=      5-min Rain = 0
KLA1 121024Z 25001KT 15/10 A3003 RMK A01 T01460095  RH  071%=      5-min Rain = 0
KLA1 121025Z 23001KT 15/10 A3003 RMK A01 T01450095  RH  072%=      5-min Rain = 0
KLA1 121026Z 23000KT 14/09 A3003 RMK A01 T01430094  RH  072%=      5-min Rain = 0
KLA1 121027Z 00000KT 14/10 A3003 RMK A01 T01420095  RH  073%=      5-min Rain = 0
KLA1 121028Z 00000KT 14/10 A3003 RMK A01 T01410095  RH  074%=      5-min Rain = 0
KLA1 121029Z 00000KT 14/10 A3003 RMK A01 T01410096  RH  074%=      5-min Rain = 0
KLA1 121030Z 00000KT 14/10 A3003 RMK A01 T01410096  RH  074%=      5-min Rain = 0
KLA1 121031Z 00000KT 14/10 A3003 RMK A01 T01410096  RH  074%=      5-min Rain = 0
KLA1 121032Z 00000KT 14/10 A3003 RMK A01 T01400096  RH  074%=      5-min Rain = 0
KLA1 121033Z 00000KT 14/10 A3003 RMK A01 T01400096  RH  075%=      5-min Rain = 0
KLA1 121034Z 00000KT 14/10 A3003 RMK A01 T01400096  RH  075%=      5-min Rain = 0
KLA1 121035Z 00000KT 14/10 A3003 RMK A01 T01400096  RH  075%=      5-min Rain = 0
KLA1 121036Z 00000KT 14/10 A3003 RMK A01 T01400096  RH  075%=      5-min Rain = 0
KLA1 121037Z 00000KT 14/10 A3003 RMK A01 T01410096  RH  074%=      5-min Rain = 0
KLA1 121038Z 00000KT 14/10 A3003 RMK A01 T01420096  RH  074%=      5-min Rain = 0
KLA1 121039Z 00000KT 14/10 A3003 RMK A01 T01420096  RH  074%=      5-min Rain = 0
KLA1 121040Z 00000KT 14/10 A3003 RMK A01 T01420097  RH  074%=      5-min Rain = 0
KLA1 121041Z 00000KT 14/10 A3003 RMK A01 T01420096  RH  074%=      5-min Rain = 0
KLA1 121042Z 02000KT 14/10 A3003 RMK A01 T01420097  RH  074%=      5-min Rain = 0
KLA1 121043Z 03001KT 14/10 A3003 RMK A01 T01420097  RH  074%=      5-min Rain = 0
KLA1 121044Z 02002KT 14/10 A3003 RMK A01 T01420097  RH  074%=      5-min Rain = 0
KLA1 121045Z 02002KT 14/10 A3003 RMK A01 T01420097  RH  074%=      5-min Rain = 0
KLA1 121046Z 02002KT 14/10 A3003 RMK A01 T01410097  RH  075%=      5-min Rain = 0
KLA1 121047Z 01002KT 14/10 A3003 RMK A01 T01420097  RH  075%=      5-min Rain = 0
KLA1 121048Z 01002KT 14/10 A3003 RMK A01 T01440098  RH  074%=      5-min Rain = 0
KLA1 121049Z 01002KT 15/10 A3003 RMK A01 T01450099  RH  074%=      5-min Rain = 0
KLA1 121050Z 01002KT 15/10 A3003 RMK A01 T01470100  RH  073%=      5-min Rain = 0
KLA1 121051Z 01002KT 15/10 A3003 RMK A01 T01500100  RH  072%=      5-min Rain = 0
KLA1 121052Z 01002KT 15/10 A3003 RMK A01 T01510100  RH  071%=      5-min Rain = 0
KLA1 121053Z 01002KT 15/10 A3003 RMK A01 T01520100  RH  071%=      5-min Rain = 0
KLA1 121054Z 34001KT 15/10 A3003 RMK A01 T01520099  RH  071%=      5-min Rain = 0
KLA1 121055Z 00001KT 15/10 A3003 RMK A01 T01500096  RH  070%=      5-min Rain = 0
KLA1 121056Z 31001KT 15/10 A3003 RMK A01 T01490096  RH  070%=      5-min Rain = 0
KLA1 121057Z 30002KT 15/10 A3003 RMK A01 T01480095  RH  071%=      5-min Rain = 0
KLA1 121058Z 30002KT 15/09 A3003 RMK A01 T01470094  RH  071%=      5-min Rain = 0
KLA1 121059Z 30002KT 15/09 A3003 RMK A01 T01460094  RH  071%=      5-min Rain = 0
KLA1 121100Z 30002KT 15/09 A3003 RMK A01 T01450093  RH  071%=      5-min Rain = 0
KLA1 121101Z 30002KT 15/09 A3003 RMK A01 T01450093  RH  071%=      5-min Rain = 0
KLA1 121102Z 30001KT 14/09 A3003 RMK A01 T01440093  RH  071%=      5-min Rain = 0
KLA1 121103Z 29003KT 14/09 A3003 RMK A01 T01430093  RH  072%=      5-min Rain = 0
KLA1 121104Z 30003KT 14/09 A3003 RMK A01 T01420093  RH  072%=      5-min Rain = 0
KLA1 121105Z 30002KT 14/09 A3003 RMK A01 T01420093  RH  072%=      5-min Rain = 0
KLA1 121106Z 30002KT 14/09 A3003 RMK A01 T01410093  RH  073%=      5-min Rain = 0
KLA1 121107Z 30001KT 14/09 A3003 RMK A01 T01410093  RH  073%=      5-min Rain = 0
KLA1 121108Z 30000KT 14/09 A3003 RMK A01 T01410094  RH  073%=      5-min Rain = 0
KLA1 121109Z 00000KT 14/09 A3003 RMK A01 T01400094  RH  074%=      5-min Rain = 0
KLA1 121110Z 00000KT 14/09 A3003 RMK A01 T01390094  RH  074%=      5-min Rain = 0
KLA1 121111Z 30000KT 14/09 A3003 RMK A01 T01380093  RH  074%=      5-min Rain = 0
KLA1 121112Z 00000KT 14/09 A3003 RMK A01 T01380093  RH  074%=      5-min Rain = 0
KLA1 121113Z 00000KT 14/09 A3004 RMK A01 T01380093  RH  074%=      5-min Rain = 0
KLA1 121114Z 00000KT 14/09 A3004 RMK A01 T01370092  RH  074%=      5-min Rain = 0
KLA1 121115Z 00000KT 14/09 A3004 RMK A01 T01360091  RH  074%=      5-min Rain = 0
KLA1 121116Z 00000KT 14/09 A3004 RMK A01 T01360091  RH  074%=      5-min Rain = 0
KLA1 121117Z 00000KT 14/09 A3004 RMK A01 T01360090  RH  074%=      5-min Rain = 0
KLA1 121118Z 00000KT 14/09 A3004 RMK A01 T01350090  RH  074%=      5-min Rain = 0
KLA1 121119Z 00000KT 13/09 A3004 RMK A01 T01340091  RH  075%=      5-min Rain = 0
KLA1 121120Z 10000KT 13/09 A3004 RMK A01 T01340092  RH  076%=      5-min Rain = 0
KLA1 121121Z 00000KT 13/09 A3004 RMK A01 T01340092  RH  076%=      5-min Rain = 0
KLA1 121122Z 10001KT 13/09 A3004 RMK A01 T01330092  RH  076%=      5-min Rain = 0
KLA1 121123Z 08001KT 13/09 A3004 RMK A01 T01330092  RH  077%=      5-min Rain = 0
KLA1 121124Z 08001KT 13/09 A3004 RMK A01 T01320092  RH  077%=      5-min Rain = 0
KLA1 121125Z 07001KT 13/09 A3004 RMK A01 T01310092  RH  077%=      5-min Rain = 0
KLA1 121126Z 07001KT 13/09 A3004 RMK A01 T01310092  RH  077%=      5-min Rain = 0
KLA1 121127Z 07001KT 13/09 A3004 RMK A01 T01300092  RH  077%=      5-min Rain = 0
KLA1 121128Z 07001KT 13/09 A3004 RMK A01 T01300092  RH  077%=      5-min Rain = 0
KLA1 121129Z 07000KT 13/09 A3004 RMK A01 T01300091  RH  077%=      5-min Rain = 0
KLA1 121130Z 07000KT 13/09 A3004 RMK A01 T01290091  RH  077%=      5-min Rain = 0
KLA1 121131Z 00000KT 13/09 A3004 RMK A01 T01290091  RH  078%=      5-min Rain = 0
KLA1 121132Z 00000KT 13/09 A3004 RMK A01 T01290093  RH  078%=      5-min Rain = 0
KLA1 121133Z 00000KT 13/09 A3004 RMK A01 T01290094  RH  079%=      5-min Rain = 0
KLA1 121134Z 00000KT 13/10 A3004 RMK A01 T01300095  RH  079%=      5-min Rain = 0
KLA1 121135Z 16000KT 13/09 A3004 RMK A01 T01310094  RH  078%=      5-min Rain = 0
KLA1 121136Z 16001KT 13/09 A3004 RMK A01 T01320092  RH  076%=      5-min Rain = 0
KLA1 121137Z 16000KT 13/09 A3004 RMK A01 T01310089  RH  076%=      5-min Rain = 0
KLA1 121138Z 12000KT 13/09 A3004 RMK A01 T01300089  RH  076%=      5-min Rain = 0
KLA1 121139Z 12001KT 13/09 A3004 RMK A01 T01300090  RH  077%=      5-min Rain = 0
KLA1 121140Z 12000KT 13/09 A3004 RMK A01 T01290090  RH  077%=      5-min Rain = 0
KLA1 121141Z 12000KT 13/09 A3004 RMK A01 T01290090  RH  077%=      5-min Rain = 0
KLA1 121142Z 00000KT 13/09 A3004 RMK A01 T01290090  RH  077%=      5-min Rain = 0
KLA1 121143Z 00000KT 13/09 A3004 RMK A01 T01290090  RH  077%=      5-min Rain = 0
KLA1 121144Z 00000KT 13/09 A3004 RMK A01 T01290090  RH  077%=      5-min Rain = 0
KLA1 121145Z 00000KT 13/09 A3004 RMK A01 T01300090  RH  077%=      5-min Rain = 0
KLA1 121146Z 00000KT 13/09 A3004 RMK A01 T01300090  RH  077%=      5-min Rain = 0
KLA1 121147Z 12001KT 13/09 A3004 RMK A01 T01300090  RH  077%=      5-min Rain = 0
KLA1 121148Z 12001KT 13/09 A3004 RMK A01 T01300090  RH  077%=      5-min Rain = 0
KLA1 121149Z 12001KT 13/09 A3004 RMK A01 T01300090  RH  077%=      5-min Rain = 0
KLA1 121150Z 10001KT 13/09 A3004 RMK A01 T01300090  RH  077%=      5-min Rain = 0
KLA1 121151Z 10001KT 13/09 A3004 RMK A01 T01300090  RH  077%=      5-min Rain = 0
KLA1 121152Z 10001KT 13/09 A3004 RMK A01 T01310091  RH  077%=      5-min Rain = 0
KLA1 121153Z 10001KT 13/09 A3004 RMK A01 T01310091  RH  077%=      5-min Rain = 0
KLA1 121154Z 11001KT 13/09 A3004 RMK A01 T01310090  RH  077%=      5-min Rain = 0
KLA1 121155Z 11001KT 13/09 A3004 RMK A01 T01310090  RH  076%=      5-min Rain = 0
KLA1 121156Z 12001KT 13/09 A3004 RMK A01 T01310090  RH  077%=      5-min Rain = 0
KLA1 121157Z 11001KT 13/09 A3004 RMK A01 T01300090  RH  077%=      5-min Rain = 0
KLA1 121158Z 11001KT 13/09 A3004 RMK A01 T01300090  RH  077%=      5-min Rain = 0
KLA1 121159Z 12001KT 13/09 A3004 RMK A01 T01300090  RH  077%=      5-min Rain = 0
KLA1 121200Z 12001KT 13/09 A3004 RMK A01 T01300090  RH  077%=      5-min Rain = 0
KLA1 121201Z 13001KT 13/09 A3004 RMK A01 T01300091  RH  077%=      5-min Rain = 0
KLA1 121202Z 12000KT 13/09 A3004 RMK A01 T01300090  RH  077%=      5-min Rain = 0
KLA1 121203Z 00000KT 13/09 A3004 RMK A01 T01300090  RH  077%=      5-min Rain = 0
KLA1 121204Z 13000KT 13/09 A3004 RMK A01 T01300090  RH  077%=      5-min Rain = 0
KLA1 121205Z 00000KT 13/09 A3004 RMK A01 T01300090  RH  077%=      5-min Rain = 0
KLA1 121206Z 00000KT 13/09 A3004 RMK A01 T01300091  RH  077%=      5-min Rain = 0
KLA1 121207Z 00000KT 13/09 A3004 RMK A01 T01300091  RH  077%=      5-min Rain = 0
KLA1 121208Z 00000KT 13/09 A3005 RMK A01 T01300091  RH  077%=      5-min Rain = 0
KLA1 121209Z 13000KT 13/09 A3005 RMK A01 T01310091  RH  077%=      5-min Rain = 0
KLA1 121210Z 13000KT 13/09 A3005 RMK A01 T01310091  RH  077%=      5-min Rain = 0
KLA1 121211Z 13000KT 13/09 A3005 RMK A01 T01310091  RH  077%=      5-min Rain = 0
KLA1 121212Z 13000KT 13/09 A3005 RMK A01 T01310091  RH  077%=      5-min Rain = 0
KLA1 121213Z 00000KT 13/09 A3005 RMK A01 T01310091  RH  077%=      5-min Rain = 0
KLA1 121214Z 00000KT 13/09 A3005 RMK A01 T01310091  RH  077%=      5-min Rain = 0
KLA1 121215Z 00000KT 13/09 A3005 RMK A01 T01310091  RH  077%=      5-min Rain = 0
KLA1 121216Z 00000KT 13/09 A3005 RMK A01 T01310091  RH  077%=      5-min Rain = 0
KLA1 121217Z 00000KT 13/09 A3005 RMK A01 T01300091  RH  077%=      5-min Rain = 0
KLA1 121218Z 00000KT 13/09 A3005 RMK A01 T01290090  RH  077%=      5-min Rain = 0
KLA1 121219Z 00000KT 13/09 A3005 RMK A01 T01270089  RH  077%=      5-min Rain = 0
KLA1 121220Z 00000KT 13/09 A3005 RMK A01 T01270089  RH  078%=      5-min Rain = 0
KLA1 121221Z 13000KT 13/09 A3005 RMK A01 T01260089  RH  078%=      5-min Rain = 0
KLA1 121222Z 11001KT 13/09 A3005 RMK A01 T01250090  RH  079%=      5-min Rain = 0
KLA1 121223Z 11001KT 13/09 A3005 RMK A01 T01260091  RH  079%=      5-min Rain = 0
KLA1 121224Z 11002KT 13/09 A3005 RMK A01 T01260090  RH  079%=      5-min Rain = 0
KLA1 121225Z 10002KT 13/09 A3005 RMK A01 T01280091  RH  078%=      5-min Rain = 0
KLA1 121226Z 10002KT 13/09 A3005 RMK A01 T01280091  RH  078%=      5-min Rain = 0
KLA1 121227Z 09002KT 13/09 A3005 RMK A01 T01290093  RH  079%=      5-min Rain = 0
KLA1 121228Z 09003KT 13/09 A3005 RMK A01 T01300094  RH  079%=      5-min Rain = 0
KLA1 121229Z 09002KT 13/10 A3005 RMK A01 T01330096  RH  078%=      5-min Rain = 0
KLA1 121230Z 09003KT 14/10 A3005 RMK A01 T01360097  RH  077%=      5-min Rain = 0
KLA1 121231Z 09002KT 14/10 A3005 RMK A01 T01380097  RH  076%=      5-min Rain = 0
KLA1 121232Z 09002KT 14/10 A3005 RMK A01 T01400097  RH  075%=      5-min Rain = 0
KLA1 121233Z 09002KT 14/10 A3005 RMK A01 T01420097  RH  074%=      5-min Rain = 0
KLA1 121234Z 08002KT 14/10 A3005 RMK A01 T01420097  RH  074%=      5-min Rain = 0
KLA1 121235Z 10002KT 14/10 A3005 RMK A01 T01420098  RH  074%=      5-min Rain = 0
KLA1 121236Z 10002KT 14/10 A3005 RMK A01 T01430097  RH  074%=      5-min Rain = 0
KLA1 121237Z 12001KT 14/10 A3005 RMK A01 T01440097  RH  074%=      5-min Rain = 0
KLA1 121238Z 10001KT 14/10 A3005 RMK A01 T01440097  RH  073%=      5-min Rain = 0
KLA1 121239Z 11001KT 14/10 A3005 RMK A01 T01430097  RH  074%=      5-min Rain = 0
KLA1 121240Z 11001KT 14/10 A3005 RMK A01 T01420097  RH  074%=      5-min Rain = 0
KLA1 121241Z 11001KT 14/10 A3005 RMK A01 T01410096  RH  075%=      5-min Rain = 0
KLA1 121242Z 11001KT 14/10 A3005 RMK A01 T01390096  RH  075%=      5-min Rain = 0
KLA1 121243Z 09001KT 14/10 A3005 RMK A01 T01390096  RH  075%=      5-min Rain = 0
KLA1 121244Z 07000KT 14/10 A3005 RMK A01 T01380096  RH  076%=      5-min Rain = 0
KLA1 121245Z 07000KT 14/10 A3005 RMK A01 T01370095  RH  076%=      5-min Rain = 0
KLA1 121246Z 29001KT 14/10 A3005 RMK A01 T01360096  RH  076%=      5-min Rain = 0
KLA1 121247Z 28001KT 14/10 A3005 RMK A01 T01360097  RH  077%=      5-min Rain = 0
KLA1 121248Z 27001KT 14/10 A3005 RMK A01 T01360097  RH  077%=      5-min Rain = 0
KLA1 121249Z 27001KT 14/10 A3005 RMK A01 T01360097  RH  077%=      5-min Rain = 0
KLA1 121250Z 28001KT 14/10 A3005 RMK A01 T01370096  RH  077%=      5-min Rain = 0
KLA1 121251Z 31000KT 14/10 A3005 RMK A01 T01370097  RH  077%=      5-min Rain = 0
KLA1 121252Z 00000KT 14/10 A3005 RMK A01 T01370096  RH  076%=      5-min Rain = 0
KLA1 121253Z 00000KT 14/10 A3005 RMK A01 T01380097  RH  076%=      5-min Rain = 0
KLA1 121254Z 00000KT 14/10 A3005 RMK A01 T01380097  RH  076%=      5-min Rain = 0
KLA1 121255Z 00000KT 14/10 A3005 RMK A01 T01380096  RH  076%=      5-min Rain = 0
KLA1 121256Z 00000KT 14/10 A3005 RMK A01 T01380096  RH  076%=      5-min Rain = 0
KLA1 121257Z 00000KT 14/10 A3005 RMK A01 T01380096  RH  075%=      5-min Rain = 0
KLA1 121258Z 00000KT 14/10 A3005 RMK A01 T01380096  RH  076%=      5-min Rain = 0
KLA1 121259Z 00000KT 14/10 A3005 RMK A01 T01380095  RH  075%=      5-min Rain = 0
KLA1 121300Z 00000KT 14/10 A3005 RMK A01 T01380095  RH  075%=      5-min Rain = 0
KLA1 121301Z 00000KT 14/10 A3005 RMK A01 T01380095  RH  075%=      5-min Rain = 0
KLA1 121302Z 00000KT 14/10 A3005 RMK A01 T01380095  RH  075%=      5-min Rain = 0
KLA1 121303Z 00000KT 14/10 A3005 RMK A01 T01390095  RH  075%=      5-min Rain = 0
KLA1 121304Z 00000KT 14/10 A3005 RMK A01 T01390096  RH  075%=      5-min Rain = 0
KLA1 121305Z 00000KT 14/10 A3005 RMK A01 T01400096  RH  075%=      5-min Rain = 0
KLA1 121306Z 00000KT 14/10 A3006 RMK A01 T01400095  RH  074%=      5-min Rain = 0
KLA1 121307Z 00000KT 14/10 A3006 RMK A01 T01400095  RH  074%=      5-min Rain = 0
KLA1 121308Z 00000KT 14/10 A3006 RMK A01 T01410095  RH  074%=      5-min Rain = 0
KLA1 121309Z 00000KT 14/09 A3006 RMK A01 T01410094  RH  073%=      5-min Rain = 0
KLA1 121310Z 28000KT 14/09 A3006 RMK A01 T01410094  RH  073%=      5-min Rain = 0
KLA1 121311Z 28001KT 14/09 A3006 RMK A01 T01410094  RH  073%=      5-min Rain = 0
KLA1 121312Z 28001KT 14/10 A3006 RMK A01 T01420095  RH  073%=      5-min Rain = 0
KLA1 121313Z 28001KT 14/10 A3006 RMK A01 T01420095  RH  073%=      5-min Rain = 0
KLA1 121314Z 28001KT 14/10 A3006 RMK A01 T01420095  RH  073%=      5-min Rain = 0
KLA1 121315Z 30000KT 14/10 A3006 RMK A01 T01430096  RH  073%=      5-min Rain = 0
KLA1 121316Z 00000KT 14/10 A3006 RMK A01 T01430096  RH  073%=      5-min Rain = 0
KLA1 121317Z 28000KT 14/10 A3006 RMK A01 T01440096  RH  073%=      5-min Rain = 0
KLA1 121318Z 28001KT 14/10 A3006 RMK A01 T01440095  RH  073%=      5-min Rain = 0
KLA1 121319Z 28000KT 15/10 A3006 RMK A01 T01450095  RH  072%=      5-min Rain = 0
KLA1 121320Z 00000KT 15/10 A3006 RMK A01 T01460096  RH  072%=      5-min Rain = 0
KLA1 121321Z 00000KT 15/10 A3006 RMK A01 T01470096  RH  072%=      5-min Rain = 0
KLA1 121322Z 00000KT 15/10 A3006 RMK A01 T01470096  RH  071%=      5-min Rain = 0
KLA1 121323Z 00000KT 15/10 A3006 RMK A01 T01480096  RH  071%=      5-min Rain = 0
KLA1 121324Z 00000KT 15/10 A3005 RMK A01 T01490096  RH  071%=      5-min Rain = 0
KLA1 121325Z 00000KT 15/10 A3005 RMK A01 T01500097  RH  071%=      5-min Rain = 0
KLA1 121326Z 00000KT 15/10 A3006 RMK A01 T01500096  RH  070%=      5-min Rain = 0
KLA1 121327Z 00000KT 15/10 A3006 RMK A01 T01500097  RH  070%=      5-min Rain = 0
KLA1 121328Z 00000KT 15/10 A3006 RMK A01 T01510097  RH  070%=      5-min Rain = 0
KLA1 121329Z 00000KT 15/10 A3006 RMK A01 T01520098  RH  070%=      5-min Rain = 0
KLA1 121330Z 00000KT 15/10 A3006 RMK A01 T01520098  RH  070%=      5-min Rain = 0
KLA1 121331Z 00000KT 15/10 A3006 RMK A01 T01530098  RH  070%=      5-min Rain = 0
KLA1 121332Z 00000KT 16/10 A3006 RMK A01 T01550098  RH  069%=      5-min Rain = 0
KLA1 121333Z 00000KT 16/10 A3006 RMK A01 T01550098  RH  069%=      5-min Rain = 0
KLA1 121334Z 21000KT 16/10 A3006 RMK A01 T01560098  RH  068%=      5-min Rain = 0
KLA1 121335Z 21000KT 16/10 A3006 RMK A01 T01570098  RH  068%=      5-min Rain = 0
KLA1 121336Z 00000KT 16/10 A3006 RMK A01 T01580098  RH  068%=      5-min Rain = 0
KLA1 121337Z 00000KT 16/10 A3006 RMK A01 T01590099  RH  067%=      5-min Rain = 0
KLA1 121338Z 00000KT 16/10 A3006 RMK A01 T01600099  RH  067%=      5-min Rain = 0
KLA1 121339Z 00000KT 16/10 A3006 RMK A01 T01600099  RH  067%=      5-min Rain = 0
KLA1 121340Z 00000KT 16/10 A3006 RMK A01 T01610100  RH  067%=      5-min Rain = 0
KLA1 121341Z 00000KT 16/10 A3006 RMK A01 T01620100  RH  066%=      5-min Rain = 0
KLA1 121342Z 00000KT 16/10 A3006 RMK A01 T01630100  RH  066%=      5-min Rain = 0
KLA1 121343Z 21000KT 16/10 A3006 RMK A01 T01640101  RH  066%=      5-min Rain = 0
KLA1 121344Z 00000KT 17/10 A3006 RMK A01 T01650101  RH  066%=      5-min Rain = 0
KLA1 121345Z 00000KT 17/10 A3006 RMK A01 T01660100  RH  065%=      5-min Rain = 0
KLA1 121346Z 26000KT 17/10 A3006 RMK A01 T01660100  RH  065%=      5-min Rain = 0
KLA1 121347Z 26000KT 17/10 A3006 RMK A01 T01670101  RH  065%=      5-min Rain = 0
KLA1 121348Z 25000KT 17/10 A3006 RMK A01 T01680101  RH  065%=      5-min Rain = 0
KLA1 121349Z 00000KT 17/10 A3006 RMK A01 T01690102  RH  065%=      5-min Rain = 0
KLA1 121350Z 23000KT 17/10 A3006 RMK A01 T01700102  RH  064%=      5-min Rain = 0
KLA1 121351Z 00000KT 17/10 A3006 RMK A01 T01710102  RH  064%=      5-min Rain = 0
KLA1 121352Z 00000KT 17/10 A3006 RMK A01 T01720102  RH  064%=      5-min Rain = 0
KLA1 121353Z 00000KT 17/10 A3006 RMK A01 T01720102  RH  063%=      5-min Rain = 0
KLA1 121354Z 00000KT 17/10 A3006 RMK A01 T01730103  RH  063%=      5-min Rain = 0
KLA1 121355Z 00000KT 17/10 A3006 RMK A01 T01740103  RH  063%=      5-min Rain = 0
KLA1 121356Z 00000KT 18/10 A3006 RMK A01 T01760104  RH  063%=      5-min Rain = 0
KLA1 121357Z 00000KT 18/10 A3006 RMK A01 T01770104  RH  062%=      5-min Rain = 0
KLA1 121358Z 00000KT 18/11 A3006 RMK A01 T01790105  RH  062%=      5-min Rain = 0
KLA1 121359Z 00000KT 18/11 A3006 RMK A01 T01810105  RH  061%=      5-min Rain = 0
KLA1 121400Z 00000KT 18/11 A3006 RMK A01 T01840106  RH  060%=      5-min Rain = 0
KLA1 121401Z 00000KT 19/11 A3006 RMK A01 T01870106  RH  059%=      5-min Rain = 0
KLA1 121402Z 00000KT 19/11 A3006 RMK A01 T01880106  RH  059%=      5-min Rain = 0
KLA1 121403Z 00000KT 19/11 A3006 RMK A01 T01880106  RH  059%=      5-min Rain = 0
KLA1 121404Z 00000KT 19/11 A3006 RMK A01 T01890106  RH  059%=      5-min Rain = 0
KLA1 121405Z 00000KT 19/11 A3006 RMK A01 T01900106  RH  058%=      5-min Rain = 0
KLA1 121406Z 00000KT 19/11 A3006 RMK A01 T01900106  RH  058%=      5-min Rain = 0
KLA1 121407Z 00000KT 19/11 A3006 RMK A01 T01910106  RH  058%=      5-min Rain = 0
KLA1 121408Z 22000KT 19/11 A3006 RMK A01 T01910106  RH  058%=      5-min Rain = 0
KLA1 121409Z 00000KT 19/11 A3006 RMK A01 T01910106  RH  058%=      5-min Rain = 0
KLA1 121410Z 23001KT 19/11 A3006 RMK A01 T01910107  RH  058%=      5-min Rain = 0
KLA1 121411Z 25000KT 19/11 A3006 RMK A01 T01910107  RH  058%=      5-min Rain = 0
KLA1 121412Z 27000KT 19/11 A3006 RMK A01 T01910107  RH  058%=      5-min Rain = 0
KLA1 121413Z 22000KT 19/11 A3006 RMK A01 T01920107  RH  058%=      5-min Rain = 0
KLA1 121414Z 24000KT 19/11 A3006 RMK A01 T01920106  RH  058%=      5-min Rain = 0
KLA1 121415Z 24001KT 19/11 A3006 RMK A01 T01930106  RH  057%=      5-min Rain = 0
KLA1 121416Z 23000KT 19/11 A3006 RMK A01 T01930105  RH  057%=      5-min Rain = 0
KLA1 121417Z 26000KT 19/11 A3006 RMK A01 T01930106  RH  057%=      5-min Rain = 0
KLA1 121418Z 27001KT 19/11 A3006 RMK A01 T01940106  RH  057%=      5-min Rain = 0
KLA1 121419Z 27000KT 20/11 A3006 RMK A01 T01950108  RH  057%=      5-min Rain = 0
KLA1 121420Z 00000KT 20/11 A3006 RMK A01 T01970107  RH  056%=      5-min Rain = 0
KLA1 121421Z 00000KT 20/11 A3006 RMK A01 T01980108  RH  056%=      5-min Rain = 0
KLA1 121422Z 00000KT 20/11 A3006 RMK A01 T01990107  RH  055%=      5-min Rain = 0
KLA1 121423Z 21000KT 20/11 A3006 RMK A01 T02000107  RH  055%=      5-min Rain = 0
KLA1 121424Z 00000KT 20/11 A3006 RMK A01 T02010107  RH  055%=      5-min Rain = 0
KLA1 121425Z 00000KT 20/11 A3006 RMK A01 T02030107  RH  054%=      5-min Rain = 0
KLA1 121426Z 31000KT 20/11 A3006 RMK A01 T02030107  RH  054%=      5-min Rain = 0
KLA1 121427Z 00000KT 21/11 A3006 RMK A01 T02050108  RH  054%=      5-min Rain = 0
KLA1 121428Z 27000KT 21/11 A3006 RMK A01 T02060109  RH  054%=      5-min Rain = 0
KLA1 121429Z 22000KT 21/11 A3006 RMK A01 T02060109  RH  054%=      5-min Rain = 0
KLA1 121430Z 24001KT 21/11 A3006 RMK A01 T02070110  RH  054%=      5-min Rain = 0
KLA1 121431Z 24001KT 21/11 A3006 RMK A01 T02070110  RH  054%=      5-min Rain = 0
KLA1 121432Z 24001KT 21/11 A3006 RMK A01 T02070110  RH  054%=      5-min Rain = 0
KLA1 121433Z 25001KT 21/11 A3006 RMK A01 T02070111  RH  054%=      5-min Rain = 0
KLA1 121434Z 27001KT 21/11 A3006 RMK A01 T02070110  RH  054%=      5-min Rain = 0
KLA1 121435Z 25001KT 21/11 A3006 RMK A01 T02070110  RH  054%=      5-min Rain = 0
KLA1 121436Z 27002KT 21/11 A3006 RMK A01 T02070111  RH  054%=      5-min Rain = 0
KLA1 121437Z 26001KT 21/11 A3006 RMK A01 T02070110  RH  054%=      5-min Rain = 0
KLA1 121438Z 27001KT 21/11 A3006 RMK A01 T02080111  RH  054%=      5-min Rain = 0
KLA1 121439Z 31002KT 21/11 A3006 RMK A01 T02080112  RH  054%=      5-min Rain = 0
KLA1 121440Z 30001KT 21/11 A3006 RMK A01 T02090111  RH  053%=      5-min Rain = 0
KLA1 121441Z 26001KT 21/11 A3006 RMK A01 T02110110  RH  053%=      5-min Rain = 0
KLA1 121442Z 26001KT 21/11 A3006 RMK A01 T02110110  RH  053%=      5-min Rain = 0
KLA1 121443Z 27000KT 21/11 A3006 RMK A01 T02120111  RH  052%=      5-min Rain = 0
KLA1 121444Z 00000KT 21/11 A3006 RMK A01 T02130110  RH  052%=      5-min Rain = 0
KLA1 121445Z 00000KT 21/11 A3006 RMK A01 T02130110  RH  052%=      5-min Rain = 0
KLA1 121446Z 00000KT 21/11 A3006 RMK A01 T02140110  RH  051%=      5-min Rain = 0
KLA1 121447Z 00000KT 22/11 A3006 RMK A01 T02150109  RH  051%=      5-min Rain = 0
KLA1 121448Z 00000KT 22/11 A3006 RMK A01 T02180111  RH  051%=      5-min Rain = 0
KLA1 121449Z 31000KT 22/11 A3006 RMK A01 T02200112  RH  050%=      5-min Rain = 0
KLA1 121450Z 34000KT 22/11 A3006 RMK A01 T02220111  RH  049%=      5-min Rain = 0
KLA1 121451Z 00000KT 22/11 A3006 RMK A01 T02230111  RH  049%=      5-min Rain = 0
KLA1 121452Z 00000KT 22/11 A3006 RMK A01 T02240112  RH  049%=      5-min Rain = 0
KLA1 121453Z 00000KT 23/11 A3006 RMK A01 T02270112  RH  048%=      5-min Rain = 0
KLA1 121454Z 11001KT 23/11 A3006 RMK A01 T02290112  RH  048%=      5-min Rain = 0
KLA1 121455Z 12002KT 23/11 A3006 RMK A01 T02310112  RH  047%=      5-min Rain = 0
KLA1 121456Z 09002KT 23/11 A3006 RMK A01 T02320110  RH  046%=      5-min Rain = 0
KLA1 121457Z 11001KT 23/11 A3006 RMK A01 T02320109  RH  046%=      5-min Rain = 0
KLA1 121458Z 11001KT 23/11 A3006 RMK A01 T02310111  RH  047%=      5-min Rain = 0
KLA1 121459Z 10001KT 23/11 A3006 RMK A01 T02310109  RH  046%=      5-min Rain = 0
KLA1 121500Z 10001KT 23/11 A3006 RMK A01 T02320109  RH  046%=      5-min Rain = 0
KLA1 121501Z 08001KT 23/11 A3006 RMK A01 T02320109  RH  046%=      5-min Rain = 0
KLA1 121502Z 11000KT 23/11 A3006 RMK A01 T02340109  RH  045%=      5-min Rain = 0
KLA1 121503Z 10001KT 24/11 A3006 RMK A01 T02350110  RH  045%=      5-min Rain = 0
KLA1 121504Z 07000KT 24/11 A3006 RMK A01 T02350110  RH  045%=      5-min Rain = 0
KLA1 121505Z 05000KT 24/11 A3006 RMK A01 T02350109  RH  045%=      5-min Rain = 0
KLA1 121506Z 17001KT 24/11 A3006 RMK A01 T02360110  RH  045%=      5-min Rain = 0
KLA1 121507Z 20001KT 24/11 A3006 RMK A01 T02360111  RH  045%=      5-min Rain = 0
KLA1 121508Z 19001KT 24/11 A3006 RMK A01 T02360112  RH  045%=      5-min Rain = 0
KLA1 121509Z 16001KT 24/11 A3006 RMK A01 T02360112  RH  045%=      5-min Rain = 0
KLA1 121510Z 11001KT 24/11 A3006 RMK A01 T02370111  RH  045%=      5-min Rain = 0
KLA1 121511Z 10000KT 24/11 A3006 RMK A01 T02390111  RH  045%=      5-min Rain = 0
KLA1 121512Z 05001KT 24/11 A3006 RMK A01 T02410111  RH  044%=      5-min Rain = 0
KLA1 121513Z 02001KT 24/11 A3006 RMK A01 T02420110  RH  044%=      5-min Rain = 0
KLA1 121514Z 04001KT 24/11 A3006 RMK A01 T02430110  RH  043%=      5-min Rain = 0
KLA1 121515Z 06001KT 25/11 A3006 RMK A01 T02450112  RH  043%=      5-min Rain = 0
KLA1 121516Z 13000KT 25/11 A3006 RMK A01 T02470113  RH  043%=      5-min Rain = 0
KLA1 121517Z 00000KT 25/11 A3006 RMK A01 T02500114  RH  042%=      5-min Rain = 0
KLA1 121518Z 00000KT 25/12 A3006 RMK A01 T02530116  RH  042%=      5-min Rain = 0
KLA1 121519Z 10002KT 26/11 A3006 RMK A01 T02550114  RH  041%=      5-min Rain = 0
KLA1 121520Z 11001KT 25/11 A3006 RMK A01 T02540111  RH  041%=      5-min Rain = 0
KLA1 121521Z 11001KT 25/11 A3006 RMK A01 T02500109  RH  041%=      5-min Rain = 0
KLA1 121522Z 14000KT 25/11 A3006 RMK A01 T02490110  RH  042%=      5-min Rain = 0
KLA1 121523Z 05000KT 25/11 A3006 RMK A01 T02490113  RH  042%=      5-min Rain = 0
KLA1 121524Z 02001KT 25/11 A3006 RMK A01 T02510112  RH  042%=      5-min Rain = 0
KLA1 121525Z 05001KT 25/11 A3006 RMK A01 T02510112  RH  042%=      5-min Rain = 0
KLA1 121526Z 05001KT 25/11 A3006 RMK A01 T02490112  RH  042%=      5-min Rain = 0
KLA1 121527Z 16001KT 25/11 A3006 RMK A01 T02490113  RH  043%=      5-min Rain = 0
KLA1 121528Z 17002KT 25/11 A3006 RMK A01 T02500114  RH  043%=      5-min Rain = 0
KLA1 121529Z 17002KT 25/11 A3006 RMK A01 T02510112  RH  042%=      5-min Rain = 0
KLA1 121530Z 16001KT 25/11 A3006 RMK A01 T02500112  RH  042%=      5-min Rain = 0
KLA1 121531Z 14002KT 25/11 A3006 RMK A01 T02500113  RH  042%=      5-min Rain = 0
KLA1 121532Z 15002KT 25/11 A3006 RMK A01 T02510112  RH  042%=      5-min Rain = 0
KLA1 121533Z 13001KT 25/11 A3006 RMK A01 T02510111  RH  042%=      5-min Rain = 0
KLA1 121534Z 10001KT 25/11 A3006 RMK A01 T02510112  RH  042%=      5-min Rain = 0
KLA1 121535Z 14000KT 25/11 A3006 RMK A01 T02520112  RH  042%=      5-min Rain = 0
KLA1 121536Z 18002KT 25/11 A3006 RMK A01 T02530113  RH  042%=      5-min Rain = 0
KLA1 121537Z 19002KT 25/11 A3006 RMK A01 T02540113  RH  041%=      5-min Rain = 0
KLA1 121538Z 19003KT 25/11 A3006 RMK A01 T02530113  RH  041%=      5-min Rain = 0
KLA1 121539Z 19003KT 25/11 A3006 RMK A01 T02510113  RH  042%=      5-min Rain = 0
KLA1 121540Z 17002KT 25/11 A3006 RMK A01 T02510114  RH  042%=      5-min Rain = 0
KLA1 121541Z 19001KT 25/11 A3006 RMK A01 T02510113  RH  042%=      5-min Rain = 0
KLA1 121542Z 19002KT 25/11 A3006 RMK A01 T02510113  RH  042%=      5-min Rain = 0
KLA1 121543Z 17002KT 25/11 A3006 RMK A01 T02510113  RH  042%=      5-min Rain = 0
KLA1 121544Z 20001KT 25/11 A3006 RMK A01 T02510113  RH  042%=      5-min Rain = 0
KLA1 121545Z 17001KT 25/11 A3006 RMK A01 T02520113  RH  042%=      5-min Rain = 0
KLA1 121546Z 18001KT 25/12 A3006 RMK A01 T02530115  RH  042%=      5-min Rain = 0
KLA1 121547Z 15001KT 26/12 A3006 RMK A01 T02560116  RH  042%=      5-min Rain = 0
KLA1 121548Z 11002KT 26/12 A3006 RMK A01 T02580115  RH  041%=      5-min Rain = 0
KLA1 121549Z 12002KT 26/11 A3006 RMK A01 T02580113  RH  040%=      5-min Rain = 0
KLA1 121550Z 12002KT 26/11 A3006 RMK A01 T02570114  RH  041%=      5-min Rain = 0
KLA1 121551Z 14001KT 26/11 A3006 RMK A01 T02580114  RH  041%=      5-min Rain = 0
KLA1 121552Z 15001KT 26/12 A3006 RMK A01 T02600115  RH  040%=      5-min Rain = 0
KLA1 121553Z 13001KT 26/11 A3006 RMK A01 T02610114  RH  040%=      5-min Rain = 0
KLA1 121554Z 12001KT 26/12 A3006 RMK A01 T02620115  RH  040%=      5-min Rain = 0
KLA1 121555Z 12001KT 26/11 A3006 RMK A01 T02620112  RH  039%=      5-min Rain = 0
KLA1 121556Z 09000KT 26/11 A3006 RMK A01 T02610113  RH  039%=      5-min Rain = 0
KLA1 121557Z 09000KT 26/11 A3006 RMK A01 T02620113  RH  039%=      5-min Rain = 0
KLA1 121558Z 14000KT 26/12 A3006 RMK A01 T02640115  RH  039%=      5-min Rain = 0
KLA1 121559Z 16002KT 27/12 A3006 RMK A01 T02680116  RH  039%=      5-min Rain = 0
KLA1 121600Z 15002KT 27/11 A3006 RMK A01 T02700114  RH  038%=      5-min Rain = 0
KLA1 121601Z 14000KT 27/11 A3005 RMK A01 T02700113  RH  038%=      5-min Rain = 0
KLA1 121602Z 10000KT 27/11 A3005 RMK A01 T02710113  RH  037%=      5-min Rain = 0
KLA1 121603Z 00000KT 27/11 A3005 RMK A01 T02720114  RH  037%=      5-min Rain = 0
KLA1 121604Z 09002KT 27/12 A3005 RMK A01 T02730115  RH  037%=      5-min Rain = 0
KLA1 121605Z 02001KT 27/12 A3005 RMK A01 T02740116  RH  037%=      5-min Rain = 0
KLA1 121606Z 31001KT 27/12 A3005 RMK A01 T02740116  RH  037%=      5-min Rain = 0
KLA1 121607Z 25001KT 27/12 A3005 RMK A01 T02730117  RH  038%=      5-min Rain = 0
KLA1 121608Z 22001KT 27/12 A3005 RMK A01 T02730116  RH  038%=      5-min Rain = 0
KLA1 121609Z 23001KT 27/12 A3005 RMK A01 T02740119  RH  038%=      5-min Rain = 0
KLA1 121610Z 22002KT 28/12 A3005 RMK A01 T02750118  RH  038%=      5-min Rain = 0
KLA1 121611Z 23001KT 28/12 A3005 RMK A01 T02750118  RH  038%=      5-min Rain = 0
KLA1 121612Z 25002KT 28/12 A3005 RMK A01 T02750116  RH  037%=      5-min Rain = 0
KLA1 121613Z 18001KT 28/12 A3005 RMK A01 T02750116  RH  037%=      5-min Rain = 0
KLA1 121614Z 15001KT 27/12 A3005 RMK A01 T02740116  RH  037%=      5-min Rain = 0
KLA1 121615Z 17001KT 27/11 A3005 RMK A01 T02730114  RH  037%=      5-min Rain = 0
KLA1 121616Z 20003KT 27/12 A3005 RMK A01 T02740115  RH  037%=      5-min Rain = 0
KLA1 121617Z 19004KT 28/12 A3005 RMK A01 T02750116  RH  037%=      5-min Rain = 0
KLA1 121618Z 20003KT 28/12 A3005 RMK A01 T02760116  RH  037%=      5-min Rain = 0
KLA1 121619Z 18002KT 28/12 A3005 RMK A01 T02770116  RH  037%=      5-min Rain = 0
KLA1 121620Z 20000KT 28/12 A3005 RMK A01 T02770116  RH  037%=      5-min Rain = 0
KLA1 121621Z 24000KT 28/11 A3005 RMK A01 T02760114  RH  036%=      5-min Rain = 0
KLA1 121622Z 21003KT 28/12 A3005 RMK A01 T02780115  RH  036%=      5-min Rain = 0
KLA1 121623Z 21002KT 28/11 A3005 RMK A01 T02780114  RH  036%=      5-min Rain = 0
KLA1 121624Z 24001KT 28/11 A3005 RMK A01 T02750114  RH  037%=      5-min Rain = 0
KLA1 121625Z 30001KT 27/12 A3005 RMK A01 T02740115  RH  037%=      5-min Rain = 0
KLA1 121626Z 31000KT 27/12 A3005 RMK A01 T02740116  RH  037%=      5-min Rain = 0
KLA1 121627Z 21001KT 28/12 A3005 RMK A01 T02760116  RH  037%=      5-min Rain = 0
KLA1 121628Z 24001KT 28/12 A3005 RMK A01 T02770115  RH  036%=      5-min Rain = 0
KLA1 121629Z 26000KT 28/12 A3004 RMK A01 T02770115  RH  037%=      5-min Rain = 0
KLA1 121630Z 15000KT 28/12 A3004 RMK A01 T02770116  RH  037%=      5-min Rain = 0
KLA1 121631Z 17003KT 28/12 A3004 RMK A01 T02780117  RH  037%=      5-min Rain = 0
KLA1 121632Z 17003KT 28/12 A3004 RMK A01 T02800117  RH  036%=      5-min Rain = 0
KLA1 121633Z 15003KT 28/12 A3004 RMK A01 T02810117  RH  036%=      5-min Rain = 0
KLA1 121634Z 16004KT 28/12 A3004 RMK A01 T02810117  RH  036%=      5-min Rain = 0
KLA1 121635Z 15004KT 28/12 A3004 RMK A01 T02810119  RH  037%=      5-min Rain = 0
KLA1 121636Z 16003KT 28/12 A3004 RMK A01 T02820117  RH  036%=      5-min Rain = 0
KLA1 121637Z 16002KT 28/12 A3004 RMK A01 T02820117  RH  036%=      5-min Rain = 0
KLA1 121638Z 14001KT 28/12 A3004 RMK A01 T02830116  RH  035%=      5-min Rain = 0
KLA1 121639Z 07000KT 28/12 A3004 RMK A01 T02840116  RH  035%=      5-min Rain = 0
KLA1 121640Z 23001KT 29/12 A3004 RMK A01 T02850116  RH  035%=      5-min Rain = 0
KLA1 121641Z 25003KT 28/12 A3004 RMK A01 T02840117  RH  036%=      5-min Rain = 0
KLA1 121642Z 26001KT 28/12 A3004 RMK A01 T02830117  RH  036%=      5-min Rain = 0
KLA1 121643Z 35000KT 28/12 A3004 RMK A01 T02810116  RH  036%=      5-min Rain = 0
KLA1 121644Z 31001KT 28/12 A3004 RMK A01 T02800117  RH  036%=      5-min Rain = 0
KLA1 121645Z 30001KT 28/12 A3004 RMK A01 T02810118  RH  036%=      5-min Rain = 0
KLA1 121646Z 29002KT 28/12 A3004 RMK A01 T02830118  RH  036%=      5-min Rain = 0
KLA1 121647Z 31002KT 29/12 A3004 RMK A01 T02850118  RH  035%=      5-min Rain = 0
KLA1 121648Z 31002KT 29/12 A3004 RMK A01 T02870117  RH  035%=      5-min Rain = 0
KLA1 121649Z 29002KT 29/12 A3004 RMK A01 T02870118  RH  035%=      5-min Rain = 0
KLA1 121650Z 26001KT 29/12 A3003 RMK A01 T02880117  RH  035%=      5-min Rain = 0
KLA1 121651Z 29002KT 29/12 A3003 RMK A01 T02870117  RH  035%=      5-min Rain = 0
KLA1 121652Z 28003KT 29/12 A3003 RMK A01 T02890118  RH  035%=      5-min Rain = 0
KLA1 121653Z 24003KT 29/12 A3003 RMK A01 T02900117  RH  034%=      5-min Rain = 0
KLA1 121654Z 20002KT 29/12 A3003 RMK A01 T02910116  RH  034%=      5-min Rain = 0
KLA1 121655Z 27001KT 29/12 A3003 RMK A01 T02920115  RH  033%=      5-min Rain = 0
KLA1 121656Z 30001KT 29/12 A3003 RMK A01 T02940116  RH  033%=      5-min Rain = 0
KLA1 121657Z 27003KT 30/12 A3003 RMK A01 T02950115  RH  033%=      5-min Rain = 0
KLA1 121658Z 29001KT 30/12 A3003 RMK A01 T02970117  RH  033%=      5-min Rain = 0
KLA1 121659Z 33002KT 30/11 A3003 RMK A01 T02990114  RH  032%=      5-min Rain = 0
KLA1 121700Z 35000KT 30/11 A3003 RMK A01 T02990114  RH  032%=      5-min Rain = 0
KLA1 121701Z 19001KT 30/11 A3003 RMK A01 T02970114  RH  032%=      5-min Rain = 0
KLA1 121702Z 17002KT 30/12 A3003 RMK A01 T02970115  RH  033%=      5-min Rain = 0
KLA1 121703Z 16001KT 30/12 A3003 RMK A01 T02970116  RH  033%=      5-min Rain = 0
KLA1 121704Z 20003KT 30/12 A3003 RMK A01 T02980116  RH  033%=      5-min Rain = 0
KLA1 121705Z 27003KT 30/12 A3003 RMK A01 T03000117  RH  032%=      5-min Rain = 0
KLA1 121706Z 27002KT 30/12 A3003 RMK A01 T03000117  RH  032%=      5-min Rain = 0
KLA1 121707Z 23001KT 30/12 A3003 RMK A01 T03020117  RH  032%=      5-min Rain = 0
KLA1 121708Z 22005KT 30/12 A3003 RMK A01 T03030116  RH  032%=      5-min Rain = 0
KLA1 121709Z 26004KT 30/12 A3003 RMK A01 T03030117  RH  032%=      5-min Rain = 0
KLA1 121710Z 26003KT 30/12 A3003 RMK A01 T03030116  RH  032%=      5-min Rain = 0
KLA1 121711Z 24003KT 30/12 A3003 RMK A01 T03010115  RH  032%=      5-min Rain = 0
KLA1 121712Z 25004KT 30/12 A3003 RMK A01 T02990116  RH  032%=      5-min Rain = 0
KLA1 121713Z 27002KT 30/12 A3003 RMK A01 T02990117  RH  033%=      5-min Rain = 0
KLA1 121714Z 29002KT 30/12 A3003 RMK A01 T03000115  RH  032%=      5-min Rain = 0
KLA1 121715Z 28003KT 30/12 A3003 RMK A01 T03010115  RH  032%=      5-min Rain = 0
KLA1 121716Z 29003KT 30/11 A3003 RMK A01 T03020113  RH  031%=      5-min Rain = 0
KLA1 121717Z 33004KT 30/12 A3003 RMK A01 T03010115  RH  032%=      5-min Rain = 0
KLA1 121718Z 33003KT 30/11 A3003 RMK A01 T03010114  RH  031%=      5-min Rain = 0
KLA1 121719Z 30002KT 30/12 A3003 RMK A01 T03020116  RH  032%=      5-min Rain = 0
KLA1 121720Z 34001KT 30/11 A3003 RMK A01 T03030112  RH  031%=      5-min Rain = 0
KLA1 121721Z 31002KT 30/11 A3003 RMK A01 T03030113  RH  031%=      5-min Rain = 0
KLA1 121722Z 31002KT 30/11 A3003 RMK A01 T03040113  RH  031%=      5-min Rain = 0
KLA1 121723Z 32001KT 30/11 A3003 RMK A01 T03040113  RH  031%=      5-min Rain = 0
KLA1 121724Z 34000KT 30/11 A3003 RMK A01 T03040111  RH  030%=      5-min Rain = 0
KLA1 121725Z 13000KT 31/11 A3003 RMK A01 T03050107  RH  030%=      5-min Rain = 0
KLA1 121726Z 11000KT 30/11 A3003 RMK A01 T03040109  RH  030%=      5-min Rain = 0
KLA1 121727Z 18001KT 30/11 A3002 RMK A01 T03040110  RH  030%=      5-min Rain = 0
KLA1 121728Z 22002KT 31/11 A3002 RMK A01 T03060112  RH  030%=      5-min Rain = 0
KLA1 121729Z 26003KT 31/11 A3002 RMK A01 T03060113  RH  030%=      5-min Rain = 0
KLA1 121730Z 26002KT 31/11 A3002 RMK A01 T03050114  RH  031%=      5-min Rain = 0
KLA1 121731Z 27005KT 31/11 A3002 RMK A01 T03050112  RH  030%=      5-min Rain = 0
KLA1 121732Z 26005KT 31/11 A3002 RMK A01 T03050110  RH  030%=      5-min Rain = 0
KLA1 121733Z 24003KT 30/11 A3002 RMK A01 T03040111  RH  030%=      5-min Rain = 0
KLA1 121734Z 18001KT 30/11 A3002 RMK A01 T03020110  RH  030%=      5-min Rain = 0
KLA1 121735Z 30000KT 30/11 A3002 RMK A01 T03030111  RH  031%=      5-min Rain = 0
KLA1 121736Z 28002KT 31/11 A3002 RMK A01 T03050111  RH  030%=      5-min Rain = 0
KLA1 121737Z 30004KT 31/11 A3002 RMK A01 T03080112  RH  030%=      5-min Rain = 0
KLA1 121738Z 30001KT 31/11 A3002 RMK A01 T03110112  RH  029%=      5-min Rain = 0
KLA1 121739Z 25001KT 31/11 A3002 RMK A01 T03120111  RH  029%=      5-min Rain = 0
KLA1 121740Z 27002KT 31/11 A3002 RMK A01 T03120112  RH  029%=      5-min Rain = 0
KLA1 121741Z 30006KT 31/11 A3002 RMK A01 T03130114  RH  029%=      5-min Rain = 0
KLA1 121742Z 28005KT 31/11 A3002 RMK A01 T03130113  RH  029%=      5-min Rain = 0
KLA1 121743Z 26001KT 31/11 A3002 RMK A01 T03130112  RH  029%=      5-min Rain = 0
KLA1 121744Z 27003KT 31/11 A3002 RMK A01 T03120112  RH  029%=      5-min Rain = 0
KLA1 121745Z 27003KT 31/11 A3002 RMK A01 T03090111  RH  029%=      5-min Rain = 0
KLA1 121746Z 24001KT 31/11 A3001 RMK A01 T03070110  RH  030%=      5-min Rain = 0
KLA1 121747Z 21002KT 31/11 A3001 RMK A01 T03070110  RH  030%=      5-min Rain = 0
KLA1 121748Z 18002KT 31/11 A3001 RMK A01 T03070109  RH  029%=      5-min Rain = 0
KLA1 121749Z 19004KT 31/11 A3001 RMK A01 T03070108  RH  029%=      5-min Rain = 0
KLA1 121750Z 18003KT 31/11 A3001 RMK A01 T03070109  RH  029%=      5-min Rain = 0
KLA1 121751Z 21003KT 31/11 A3001 RMK A01 T03080110  RH  030%=      5-min Rain = 0
KLA1 121752Z 26003KT 31/11 A3001 RMK A01 T03080110  RH  030%=      5-min Rain = 0
KLA1 121753Z 22003KT 31/11 A3001 RMK A01 T03090110  RH  029%=      5-min Rain = 0
KLA1 121754Z 23003KT 31/11 A3001 RMK A01 T03090110  RH  029%=      5-min Rain = 0
KLA1 121755Z 22003KT 31/11 A3001 RMK A01 T03080110  RH  030%=      5-min Rain = 0
KLA1 121756Z 21002KT 31/11 A3001 RMK A01 T03080109  RH  029%=      5-min Rain = 0
KLA1 121757Z 04002KT 31/11 A3001 RMK A01 T03080111  RH  030%=      5-min Rain = 0
KLA1 121758Z 02004KT 31/11 A3001 RMK A01 T03090112  RH  030%=      5-min Rain = 0
KLA1 121759Z 02004KT 31/11 A3001 RMK A01 T03110110  RH  029%=      5-min Rain = 0
KLA1 121800Z 04005KT 31/11 A3001 RMK A01 T03110111  RH  029%=      5-min Rain = 0
KLA1 121801Z 05005KT 31/11 A30 RMK A01 T03120113  RH  029%=      5-min Rain = 0
KLA1 121802Z 09003KT 31/11 A30 RMK A01 T03120110  RH  029%=      5-min Rain = 0
KLA1 121803Z 03002KT 31/11 A30 RMK A01 T03120111  RH  029%=      5-min Rain = 0
KLA1 121804Z 31003KT 31/11 A30 RMK A01 T03130114  RH  029%=      5-min Rain = 0
KLA1 121805Z 30004KT 32/11 A30 RMK A01 T03170112  RH  028%=      5-min Rain = 0
KLA1 121806Z 31002KT 32/11 A30 RMK A01 T03180113  RH  028%=      5-min Rain = 0
KLA1 121807Z 00001KT 32/11 A30 RMK A01 T03180111  RH  028%=      5-min Rain = 0
KLA1 121808Z 01003KT 32/11 A30 RMK A01 T03180113  RH  028%=      5-min Rain = 0
KLA1 121809Z 33004KT 32/11 A30 RMK A01 T03200112  RH  028%=      5-min Rain = 0
KLA1 121810Z 34004KT 32/11 A30 RMK A01 T03230114  RH  028%=      5-min Rain = 0
KLA1 121811Z 36003KT 33/11 A30 RMK A01 T03250111  RH  027%=      5-min Rain = 0
KLA1 121812Z 00002KT 32/11 A30 RMK A01 T03240113  RH  027%=      5-min Rain = 0
KLA1 121813Z 02001KT 33/12 A30 RMK A01 T03250115  RH  028%=      5-min Rain = 0
KLA1 121814Z 09002KT 33/11 A30 RMK A01 T03260114  RH  027%=      5-min Rain = 0
KLA1 121815Z 10001KT 33/11 A30 RMK A01 T03250111  RH  027%=      5-min Rain = 0
KLA1 121816Z 09000KT 32/11 A30 RMK A01 T03230111  RH  027%=      5-min Rain = 0
KLA1 121817Z 02001KT 32/11 A30 RMK A01 T03240114  RH  028%=      5-min Rain = 0
KLA1 121818Z 36001KT 33/11 A30 RMK A01 T03260113  RH  027%=      5-min Rain = 0
KLA1 121819Z 23000KT 33/11 A30 RMK A01 T03280113  RH  027%=      5-min Rain = 0
KLA1 121820Z 12002KT 33/11 A30 RMK A01 T03290114  RH  027%=      5-min Rain = 0
KLA1 121821Z 11004KT 33/11 A30 RMK A01 T03300113  RH  027%=      5-min Rain = 0
KLA1 121822Z 08005KT 33/11 A30 RMK A01 T03280113  RH  027%=      5-min Rain = 0
KLA1 121823Z 05004KT 33/11 A30 RMK A01 T03260113  RH  027%=      5-min Rain = 0
KLA1 121824Z 06001KT 33/11 A30 RMK A01 T03260113  RH  027%=      5-min Rain = 0
KLA1 121825Z 10001G6KT 33/11 A30 RMK A01 T03260111  RH  027%=      5-min Rain = 0
KLA1 121826Z 10004KT 33/11 A30 RMK A01 T03260112  RH  027%=      5-min Rain = 0
KLA1 121827Z 13003KT 32/11 A30 RMK A01 T03240110  RH  027%=      5-min Rain = 0
KLA1 121828Z 14003KT 32/11 A2999 RMK A01 T03230111  RH  027%=      5-min Rain = 0
KLA1 121829Z 02004G9KT 32/11 A2999 RMK A01 T03240113  RH  028%=      5-min Rain = 0
KLA1 121830Z 01008KT 33/11 A2999 RMK A01 T03250113  RH  027%=      5-min Rain = 0
KLA1 121831Z 01007KT 33/11 A2999 RMK A01 T03260114  RH  027%=      5-min Rain = 0
KLA1 121832Z 02009KT 33/12 A2999 RMK A01 T03290115  RH  027%=      5-min Rain = 0
KLA1 121833Z 03005KT 33/11 A2999 RMK A01 T03270114  RH  027%=      5-min Rain = 0
KLA1 121834Z 03003KT 33/11 A2999 RMK A01 T03270113  RH  027%=      5-min Rain = 0
KLA1 121835Z 35008KT 33/11 A2999 RMK A01 T03260113  RH  027%=      5-min Rain = 0
KLA1 121836Z 01005KT 33/11 A2999 RMK A01 T03260112  RH  027%=      5-min Rain = 0
KLA1 121837Z 02004KT 33/11 A2999 RMK A01 T03250112  RH  027%=      5-min Rain = 0
KLA1 121838Z 01002KT 32/11 A2999 RMK A01 T03240113  RH  028%=      5-min Rain = 0
KLA1 121839Z 33005KT 32/11 A2999 RMK A01 T03240111  RH  027%=      5-min Rain = 0
KLA1 121840Z 01006KT 32/11 A2999 RMK A01 T03240114  RH  028%=      5-min Rain = 0
KLA1 121841Z 04005KT 33/11 A2999 RMK A01 T03250113  RH  027%=      5-min Rain = 0
KLA1 121842Z 03003KT 33/11 A2999 RMK A01 T03250113  RH  027%=      5-min Rain = 0
KLA1 121843Z 01003KT 32/11 A2999 RMK A01 T03240111  RH  027%=      5-min Rain = 0
KLA1 121844Z 34002KT 32/11 A2998 RMK A01 T03230110  RH  027%=      5-min Rain = 0
KLA1 121845Z 33001KT 32/11 A2998 RMK A01 T03230110  RH  027%=      5-min Rain = 0
KLA1 121846Z 32001KT 33/11 A2998 RMK A01 T03250113  RH  027%=      5-min Rain = 0
KLA1 121847Z 31003KT 33/11 A2998 RMK A01 T03280112  RH  027%=      5-min Rain = 0
KLA1 121848Z 35002KT 33/11 A2998 RMK A01 T03310113  RH  027%=      5-min Rain = 0
KLA1 121849Z 00003KT 33/11 A2998 RMK A01 T03330114  RH  026%=      5-min Rain = 0
KLA1 121850Z 05003KT 33/12 A2998 RMK A01 T03340116  RH  026%=      5-min Rain = 0
KLA1 121851Z 07003KT 33/12 A2998 RMK A01 T03340116  RH  027%=      5-min Rain = 0
KLA1 121852Z 04003KT 34/12 A2998 RMK A01 T03350115  RH  026%=      5-min Rain = 0
KLA1 121853Z 05005KT 33/12 A2998 RMK A01 T03340116  RH  026%=      5-min Rain = 0
KLA1 121854Z 06002KT 33/12 A2998 RMK A01 T03330115  RH  026%=      5-min Rain = 0
KLA1 121855Z 13001KT 33/11 A2998 RMK A01 T03320111  RH  026%=      5-min Rain = 0
KLA1 121856Z 10002KT 33/11 A2998 RMK A01 T03310111  RH  026%=      5-min Rain = 0
KLA1 121857Z 10006KT 33/11 A2998 RMK A01 T03310112  RH  026%=      5-min Rain = 0
KLA1 121858Z 10003KT 33/11 A2998 RMK A01 T03270110  RH  026%=      5-min Rain = 0
KLA1 121859Z 12004KT 33/11 A2998 RMK A01 T03250112  RH  027%=      5-min Rain = 0
KLA1 121900Z 13003KT 33/11 A2998 RMK A01 T03260113  RH  027%=      5-min Rain = 0
KLA1 121901Z 12002KT 33/11 A2998 RMK A01 T03280113  RH  027%=      5-min Rain = 0
KLA1 121902Z 14001KT 33/11 A2998 RMK A01 T03290111  RH  026%=      5-min Rain = 0
KLA1 121903Z 30003KT 33/11 A2997 RMK A01 T03310113  RH  027%=      5-min Rain = 0
KLA1 121904Z 32005KT 33/11 A2997 RMK A01 T03340113  RH  026%=      5-min Rain = 0
KLA1 121905Z 36002KT 34/11 A2997 RMK A01 T03350113  RH  026%=      5-min Rain = 0
KLA1 121906Z 33002KT 34/11 A2997 RMK A01 T03360114  RH  026%=      5-min Rain = 0
KLA1 121907Z 31005KT 34/12 A2997 RMK A01 T03370116  RH  026%=      5-min Rain = 0
KLA1 121908Z 34003KT 34/12 A2997 RMK A01 T03400116  RH  026%=      5-min Rain = 0
KLA1 121909Z 32005KT 34/12 A2997 RMK A01 T03430116  RH  025%=      5-min Rain = 0
KLA1 121910Z 32003KT 34/11 A2997 RMK A01 T03440114  RH  025%=      5-min Rain = 0
KLA1 121911Z 34004KT 34/11 A2997 RMK A01 T03410113  RH  025%=      5-min Rain = 0
KLA1 121912Z 29004G9KT 34/11 A2997 RMK A01 T03380112  RH  025%=      5-min Rain = 0
KLA1 121913Z 27007KT 34/11 A2996 RMK A01 T03370113  RH  026%=      5-min Rain = 0
KLA1 121914Z 23003KT 33/11 A2996 RMK A01 T03340112  RH  026%=      5-min Rain = 0
KLA1 121915Z 28005KT 33/11 A2996 RMK A01 T03320113  RH  026%=      5-min Rain = 0
KLA1 121916Z 28006KT 33/11 A2996 RMK A01 T03320113  RH  026%=      5-min Rain = 0
KLA1 121917Z 26004KT 33/11 A2996 RMK A01 T03320113  RH  026%=      5-min Rain = 0
KLA1 121918Z 27007KT 33/11 A2996 RMK A01 T03330114  RH  026%=      5-min Rain = 0
KLA1 121919Z 27007KT 33/11 A2996 RMK A01 T03330113  RH  026%=      5-min Rain = 0
KLA1 121920Z 28007KT 33/12 A2996 RMK A01 T03330115  RH  026%=      5-min Rain = 0
KLA1 121921Z 26004KT 33/11 A2996 RMK A01 T03340113  RH  026%=      5-min Rain = 0
KLA1 121922Z 27005KT 34/12 A2996 RMK A01 T03350115  RH  026%=      5-min Rain = 0
KLA1 121923Z 27009KT 34/12 A2996 RMK A01 T03360116  RH  026%=      5-min Rain = 0
KLA1 121924Z 26005KT 34/12 A2996 RMK A01 T03380115  RH  026%=      5-min Rain = 0
KLA1 121925Z 29006KT 34/12 A2996 RMK A01 T03390115  RH  026%=      5-min Rain = 0
KLA1 121926Z 30006KT 34/11 A2996 RMK A01 T03390114  RH  025%=      5-min Rain = 0
KLA1 121927Z 29005KT 34/11 A2996 RMK A01 T03380114  RH  026%=      5-min Rain = 0
KLA1 121928Z 32003KT 34/11 A2996 RMK A01 T03370114  RH  026%=      5-min Rain = 0
KLA1 121929Z 03003KT 34/11 A2996 RMK A01 T03390114  RH  025%=      5-min Rain = 0
KLA1 121930Z 36003KT 34/11 A2995 RMK A01 T03380113  RH  025%=      5-min Rain = 0
KLA1 121931Z 28003KT 34/11 A2995 RMK A01 T03380114  RH  026%=      5-min Rain = 0
KLA1 121932Z 24006KT 34/11 A2995 RMK A01 T03390114  RH  026%=      5-min Rain = 0
KLA1 121933Z 23004KT 34/12 A2995 RMK A01 T03380115  RH  026%=      5-min Rain = 0
KLA1 121934Z 24002KT 34/12 A2995 RMK A01 T03370115  RH  026%=      5-min Rain = 0
KLA1 121935Z 27002KT 34/12 A2995 RMK A01 T03380116  RH  026%=      5-min Rain = 0
KLA1 121936Z 27002KT 34/12 A2995 RMK A01 T03410115  RH  025%=      5-min Rain = 0
KLA1 121937Z 26003KT 34/12 A2995 RMK A01 T03440115  RH  025%=      5-min Rain = 0
KLA1 121938Z 28008KT 35/12 A2995 RMK A01 T03450117  RH  025%=      5-min Rain = 0
KLA1 121939Z 30009KT 35/11 A2995 RMK A01 T03480114  RH  024%=      5-min Rain = 0
KLA1 121940Z 29007KT 35/11 A2995 RMK A01 T03480113  RH  024%=      5-min Rain = 0
KLA1 121941Z 32006KT 35/12 A2995 RMK A01 T03470115  RH  024%=      5-min Rain = 0
KLA1 121942Z 33004KT 35/11 A2995 RMK A01 T03460113  RH  024%=      5-min Rain = 0
KLA1 121943Z 28004KT 35/11 A2995 RMK A01 T03450114  RH  024%=      5-min Rain = 0
KLA1 121944Z 27004KT 35/11 A2994 RMK A01 T03460113  RH  024%=      5-min Rain = 0
KLA1 121945Z 27004KT 35/11 A2994 RMK A01 T03460114  RH  024%=      5-min Rain = 0
KLA1 121946Z 28006KT 35/11 A2994 RMK A01 T03460114  RH  024%=      5-min Rain = 0
KLA1 121947Z 28005KT 35/11 A2994 RMK A01 T03470114  RH  024%=      5-min Rain = 0
KLA1 121948Z 28003KT 35/11 A2994 RMK A01 T03460113  RH  024%=      5-min Rain = 0
KLA1 121949Z 31005G10KT 35/11 A2994 RMK A01 T03470114  RH  024%=      5-min Rain = 0
KLA1 121950Z 29009KT 35/11 A2994 RMK A01 T03480112  RH  024%=      5-min Rain = 0
KLA1 121951Z 35009KT 35/11 A2994 RMK A01 T03470113  RH  024%=      5-min Rain = 0
KLA1 121952Z 35006KT 35/11 A2994 RMK A01 T03460112  RH  024%=      5-min Rain = 0
KLA1 121953Z 00006KT 34/11 A2994 RMK A01 T03440111  RH  024%=      5-min Rain = 0
KLA1 121954Z 00008KT 34/11 A2994 RMK A01 T03440112  RH  024%=      5-min Rain = 0
KLA1 121955Z 36006KT 35/11 A2994 RMK A01 T03450111  RH  024%=      5-min Rain = 0
KLA1 121956Z 33003KT 34/11 A2994 RMK A01 T03440110  RH  024%=      5-min Rain = 0
KLA1 121957Z 35003KT 34/11 A2994 RMK A01 T03430110  RH  024%=      5-min Rain = 0
KLA1 121958Z 02004KT 34/11 A2994 RMK A01 T03440113  RH  025%=      5-min Rain = 0
KLA1 121959Z 33003KT 35/11 A2994 RMK A01 T03450110  RH  024%=      5-min Rain = 0
KLA1 122000Z 32003KT 34/11 A2993 RMK A01 T03440111  RH  024%=      5-min Rain = 0
KLA1 122001Z 28001KT 34/11 A2993 RMK A01 T03440110  RH  024%=      5-min Rain = 0
KLA1 122002Z 21003KT 34/11 A2993 RMK A01 T03430108  RH  024%=      5-min Rain = 0
KLA1 122003Z 22001KT 34/11 A2993 RMK A01 T03410110  RH  024%=      5-min Rain = 0
KLA1 122004Z 10000KT 34/11 A2993 RMK A01 T03420109  RH  024%=      5-min Rain = 0
KLA1 122005Z 11000KT 34/11 A2993 RMK A01 T03430109  RH  024%=      5-min Rain = 0
KLA1 122006Z 08000KT 34/11 A2993 RMK A01 T03430108  RH  024%=      5-min Rain = 0
KLA1 122007Z 09003KT 34/11 A2993 RMK A01 T03430110  RH  024%=      5-min Rain = 0
KLA1 122008Z 12004KT 35/11 A2993 RMK A01 T03450113  RH  024%=      5-min Rain = 0
KLA1 122009Z 12005KT 35/11 A2993 RMK A01 T03450112  RH  024%=      5-min Rain = 0
KLA1 122010Z 13002KT 34/11 A2993 RMK A01 T03410109  RH  024%=      5-min Rain = 0
KLA1 122011Z 10003KT 34/11 A2993 RMK A01 T03400110  RH  025%=      5-min Rain = 0
KLA1 122012Z 03001KT 34/11 A2993 RMK A01 T03410108  RH  024%=      5-min Rain = 0
KLA1 122013Z 03001KT 34/11 A2993 RMK A01 T03410108  RH  024%=      5-min Rain = 0
KLA1 122014Z 33004KT 34/11 A2993 RMK A01 T03410108  RH  024%=      5-min Rain = 0
KLA1 122015Z 34005KT 34/11 A2993 RMK A01 T03430106  RH  024%=      5-min Rain = 0
KLA1 122016Z 33006KT 34/11 A2992 RMK A01 T03440106  RH  023%=      5-min Rain = 0
KLA1 122017Z 03006KT 34/11 A2992 RMK A01 T03430107  RH  024%=      5-min Rain = 0
KLA1 122018Z 01006KT 34/11 A2992 RMK A01 T03430109  RH  024%=      5-min Rain = 0
KLA1 122019Z 03005KT 34/11 A2992 RMK A01 T03420106  RH  024%=      5-min Rain = 0
KLA1 122020Z 08004KT 34/11 A2992 RMK A01 T03410107  RH  024%=      5-min Rain = 0
KLA1 122021Z 09004KT 34/11 A2992 RMK A01 T03390109  RH  025%=      5-min Rain = 0
KLA1 122022Z 10005KT 34/11 A2992 RMK A01 T03400109  RH  025%=      5-min Rain = 0
KLA1 122023Z 11004KT 34/11 A2992 RMK A01 T03390111  RH  025%=      5-min Rain = 0
KLA1 122024Z 10002KT 34/11 A2992 RMK A01 T03400108  RH  024%=      5-min Rain = 0
KLA1 122025Z 18002KT 34/11 A2992 RMK A01 T03410110  RH  024%=      5-min Rain = 0
KLA1 122026Z 29004KT 34/11 A2992 RMK A01 T03440111  RH  024%=      5-min Rain = 0
KLA1 122027Z 32004KT 35/11 A2992 RMK A01 T03470111  RH  024%=      5-min Rain = 0
KLA1 122028Z 01005KT 35/11 A2992 RMK A01 T03490112  RH  024%=      5-min Rain = 0
KLA1 122029Z 01007KT 35/11 A2992 RMK A01 T03490112  RH  024%=      5-min Rain = 0
KLA1 122030Z 01008KT 35/11 A2992 RMK A01 T03470112  RH  024%=      5-min Rain = 0
KLA1 122031Z 00008KT 35/11 A2992 RMK A01 T03470111  RH  024%=      5-min Rain = 0
KLA1 122032Z 00006KT 35/11 A2992 RMK A01 T03470111  RH  024%=      5-min Rain = 0
KLA1 122033Z 01005KT 35/11 A2992 RMK A01 T03460110  RH  024%=      5-min Rain = 0
KLA1 122034Z 05003KT 35/11 A2992 RMK A01 T03460109  RH  024%=      5-min Rain = 0
KLA1 122035Z 07002KT 34/11 A2992 RMK A01 T03440108  RH  024%=      5-min Rain = 0
KLA1 122036Z 09001KT 34/11 A2992 RMK A01 T03430108  RH  024%=      5-min Rain = 0
KLA1 122037Z 09002KT 34/11 A2992 RMK A01 T03440107  RH  024%=      5-min Rain = 0
KLA1 122038Z 07002KT 34/11 A2991 RMK A01 T03440107  RH  024%=      5-min Rain = 0
KLA1 122039Z 07001KT 34/11 A2991 RMK A01 T03440108  RH  024%=      5-min Rain = 0
KLA1 122040Z 08002KT 35/11 A2991 RMK A01 T03450106  RH  023%=      5-min Rain = 0
KLA1 122041Z 10003KT 34/11 A2991 RMK A01 T03440106  RH  024%=      5-min Rain = 0
KLA1 122042Z 11002KT 34/11 A2991 RMK A01 T03430106  RH  024%=      5-min Rain = 0
KLA1 122043Z 12000KT 34/11 A2991 RMK A01 T03410106  RH  024%=      5-min Rain = 0
KLA1 122044Z 31004KT 34/11 A2991 RMK A01 T03420107  RH  024%=      5-min Rain = 0
KLA1 122045Z 30005KT 35/11 A2991 RMK A01 T03460109  RH  024%=      5-min Rain = 0
KLA1 122046Z 26005KT 35/11 A2991 RMK A01 T03470109  RH  024%=      5-min Rain = 0
KLA1 122047Z 25003KT 35/11 A2991 RMK A01 T03470110  RH  024%=      5-min Rain = 0
KLA1 122048Z 25002KT 35/11 A2991 RMK A01 T03470110  RH  024%=      5-min Rain = 0
KLA1 122049Z 32002KT 35/11 A2991 RMK A01 T03480111  RH  024%=      5-min Rain = 0
KLA1 122050Z 01005KT 35/11 A2991 RMK A01 T03510111  RH  023%=      5-min Rain = 0
KLA1 122051Z 36004KT 35/11 A2991 RMK A01 T03520110  RH  023%=      5-min Rain = 0
KLA1 122052Z 01006KT 35/11 A2991 RMK A01 T03520110  RH  023%=      5-min Rain = 0
KLA1 122053Z 01005KT 35/11 A2991 RMK A01 T03520109  RH  023%=      5-min Rain = 0
KLA1 122054Z 02002KT 35/11 A2991 RMK A01 T03530109  RH  023%=      5-min Rain = 0
KLA1 122055Z 01006KT 35/11 A2991 RMK A01 T03520108  RH  023%=      5-min Rain = 0
KLA1 122056Z 01004KT 35/11 A299 RMK A01 T03520108  RH  023%=      5-min Rain = 0
KLA1 122057Z 03005KT 35/11 A299 RMK A01 T03510111  RH  023%=      5-min Rain = 0
KLA1 122058Z 34004KT 35/11 A299 RMK A01 T03520110  RH  023%=      5-min Rain = 0
KLA1 122059Z 31006KT 35/11 A299 RMK A01 T03530109  RH  023%=      5-min Rain = 0
KLA1 122100Z 30006KT 35/11 A299 RMK A01 T03540109  RH  023%=      5-min Rain = 0
KLA1 122101Z 31004KT 36/11 A299 RMK A01 T03560111  RH  023%=      5-min Rain = 0
KLA1 122102Z 35006KT 36/11 A299 RMK A01 T03590112  RH  022%=      5-min Rain = 0
KLA1 122103Z 33005KT 36/11 A299 RMK A01 T03610108  RH  022%=      5-min Rain = 0
KLA1 122104Z 33007KT 36/11 A299 RMK A01 T03610107  RH  022%=      5-min Rain = 0
KLA1 122105Z 31009KT 36/11 A299 RMK A01 T03620109  RH  022%=      5-min Rain = 0
KLA1 122106Z 32007KT 36/11 A299 RMK A01 T03610106  RH  021%=      5-min Rain = 0
KLA1 122107Z 32009KT 36/11 A299 RMK A01 T03580108  RH  022%=      5-min Rain = 0
KLA1 122108Z 31007KT 36/11 A299 RMK A01 T03580109  RH  022%=      5-min Rain = 0
KLA1 122109Z 32004KT 36/11 A299 RMK A01 T03590107  RH  022%=      5-min Rain = 0
KLA1 122110Z 36004KT 36/11 A2989 RMK A01 T03570109  RH  022%=      5-min Rain = 0
KLA1 122111Z 00007KT 36/11 A2989 RMK A01 T03570109  RH  022%=      5-min Rain = 0
KLA1 122112Z 01006KT 36/11 A2989 RMK A01 T03580109  RH  022%=      5-min Rain = 0
KLA1 122113Z 02005KT 36/11 A2989 RMK A01 T03580111  RH  022%=      5-min Rain = 0
KLA1 122114Z 03005KT 36/11 A2989 RMK A01 T03590111  RH  022%=      5-min Rain = 0
KLA1 122115Z 04005KT 36/11 A2989 RMK A01 T03580110  RH  022%=      5-min Rain = 0
KLA1 122116Z 04007KT 36/11 A2989 RMK A01 T03580110  RH  022%=      5-min Rain = 0
KLA1 122117Z 06005KT 36/11 A2989 RMK A01 T03580109  RH  022%=      5-min Rain = 0
KLA1 122118Z 09006KT 36/11 A2989 RMK A01 T03570110  RH  022%=      5-min Rain = 0
KLA1 122119Z 11004KT 36/11 A2989 RMK A01 T03560109  RH  022%=      5-min Rain = 0
KLA1 122120Z 09005KT 35/11 A2989 RMK A01 T03540108  RH  023%=      5-min Rain = 0
KLA1 122121Z 01002KT 35/11 A2989 RMK A01 T03540109  RH  023%=      5-min Rain = 0
KLA1 122122Z 34004KT 35/11 A2989 RMK A01 T03540108  RH  023%=      5-min Rain = 0
KLA1 122123Z 35003KT 36/11 A2989 RMK A01 T03560110  RH  023%=      5-min Rain = 0
KLA1 122124Z 34002KT 36/11 A2989 RMK A01 T03570108  RH  022%=      5-min Rain = 0
KLA1 122125Z 30003KT 36/11 A2989 RMK A01 T03580108  RH  022%=      5-min Rain = 0
KLA1 122126Z 32004KT 36/11 A2989 RMK A01 T03580108  RH  022%=      5-min Rain = 0
KLA1 122127Z 29006G12KT 36/11 A2989 RMK A01 T03610109  RH  022%=      5-min Rain = 0
KLA1 122128Z 30010KT 36/11 A2989 RMK A01 T03620109  RH  022%=      5-min Rain = 0
KLA1 122129Z 32007KT 36/11 A2989 RMK A01 T03630109  RH  022%=      5-min Rain = 0
KLA1 122130Z 32008KT 36/11 A2989 RMK A01 T03620110  RH  022%=      5-min Rain = 0
KLA1 122131Z 32004KT 36/11 A2989 RMK A01 T03610107  RH  022%=      5-min Rain = 0
KLA1 122132Z 35003KT 36/11 A2988 RMK A01 T03600108  RH  022%=      5-min Rain = 0
KLA1 122133Z 00003KT 36/11 A2988 RMK A01 T03590107  RH  022%=      5-min Rain = 0
KLA1 122134Z 03002KT 36/11 A2988 RMK A01 T03590107  RH  022%=      5-min Rain = 0
KLA1 122135Z 02002KT 36/11 A2988 RMK A01 T03590109  RH  022%=      5-min Rain = 0
KLA1 122136Z 03003KT 36/11 A2988 RMK A01 T03580108  RH  022%=      5-min Rain = 0
KLA1 122137Z 31001KT 36/11 A2988 RMK A01 T03580108  RH  022%=      5-min Rain = 0
KLA1 122138Z 30005KT 36/11 A2988 RMK A01 T03580107  RH  022%=      5-min Rain = 0
KLA1 122139Z 31008G13KT 36/11 A2988 RMK A01 T03600107  RH  022%=      5-min Rain = 0
KLA1 122140Z 29004KT 36/11 A2988 RMK A01 T03600107  RH  022%=      5-min Rain = 0
KLA1 122141Z 31005KT 36/11 A2988 RMK A01 T03620107  RH  021%=      5-min Rain = 0
KLA1 122142Z 31009KT 36/11 A2988 RMK A01 T03620106  RH  021%=      5-min Rain = 0
KLA1 122143Z 34006KT 36/11 A2988 RMK A01 T03620106  RH  021%=      5-min Rain = 0
KLA1 122144Z 34007KT 36/11 A2988 RMK A01 T03620106  RH  021%=      5-min Rain = 0
KLA1 122145Z 34007KT 36/11 A2988 RMK A01 T03610106  RH  021%=      5-min Rain = 0
KLA1 122146Z 34008KT 36/11 A2988 RMK A01 T03610108  RH  022%=      5-min Rain = 0
KLA1 122147Z 36008KT 36/11 A2988 RMK A01 T03610109  RH  022%=      5-min Rain = 0
KLA1 122148Z 34007KT 36/11 A2988 RMK A01 T03610108  RH  022%=      5-min Rain = 0
KLA1 122149Z 01005KT 36/11 A2988 RMK A01 T03590109  RH  022%=      5-min Rain = 0
KLA1 122150Z 36004KT 36/11 A2988 RMK A01 T03580108  RH  022%=      5-min Rain = 0
KLA1 122151Z 36007KT 36/11 A2988 RMK A01 T03580108  RH  022%=      5-min Rain = 0
KLA1 122152Z 01005KT 36/11 A2988 RMK A01 T03570106  RH  022%=      5-min Rain = 0
KLA1 122153Z 01004KT 36/11 A2988 RMK A01 T03570107  RH  022%=      5-min Rain = 0
KLA1 122154Z 01004KT 36/11 A2988 RMK A01 T03580105  RH  022%=      5-min Rain = 0
KLA1 122155Z 35005KT 36/11 A2988 RMK A01 T03590105  RH  022%=      5-min Rain = 0
KLA1 122156Z 36006KT 36/11 A2988 RMK A01 T03580105  RH  021%=      5-min Rain = 0
KLA1 122157Z 35008KT 36/11 A2988 RMK A01 T03580107  RH  022%=      5-min Rain = 0
KLA1 122158Z 35007KT 36/11 A2988 RMK A01 T03580109  RH  022%=      5-min Rain = 0
KLA1 122159Z 34004KT 36/11 A2988 RMK A01 T03600109  RH  022%=      5-min Rain = 0
KLA1 122200Z 35004KT 36/11 A2987 RMK A01 T03600107  RH  022%=      5-min Rain = 0
KLA1 122201Z 35004KT 36/11 A2987 RMK A01 T03600108  RH  022%=      5-min Rain = 0
KLA1 122202Z 00005KT 36/11 A2987 RMK A01 T03580108  RH  022%=      5-min Rain = 0
KLA1 122203Z 35004KT 36/11 A2987 RMK A01 T03570109  RH  022%=      5-min Rain = 0
KLA1 122204Z 36006KT 36/11 A2987 RMK A01 T03600107  RH  022%=      5-min Rain = 0
KLA1 122205Z 00007KT 36/11 A2987 RMK A01 T03600108  RH  022%=      5-min Rain = 0
KLA1 122206Z 01008KT 36/11 A2987 RMK A01 T03590108  RH  022%=      5-min Rain = 0
KLA1 122207Z 00007KT 36/11 A2987 RMK A01 T03580109  RH  022%=      5-min Rain = 0
KLA1 122208Z 35007KT 36/11 A2988 RMK A01 T03580106  RH  022%=      5-min Rain = 0
KLA1 122209Z 34005KT 36/11 A2987 RMK A01 T03570105  RH  022%=      5-min Rain = 0
KLA1 122210Z 02003KT 36/11 A2987 RMK A01 T03550105  RH  022%=      5-min Rain = 0
KLA1 122211Z 03002KT 36/11 A2987 RMK A01 T03550106  RH  022%=      5-min Rain = 0
KLA1 122212Z 06003KT 35/11 A2987 RMK A01 T03540106  RH  022%=      5-min Rain = 0
KLA1 122213Z 07003KT 35/11 A2987 RMK A01 T03540107  RH  022%=      5-min Rain = 0
KLA1 122214Z 04004KT 36/11 A2987 RMK A01 T03550105  RH  022%=      5-min Rain = 0
KLA1 122215Z 36007KT 36/11 A2987 RMK A01 T03550106  RH  022%=      5-min Rain = 0
KLA1 122216Z 34006KT 36/11 A2987 RMK A01 T03550106  RH  022%=      5-min Rain = 0
KLA1 122217Z 34004KT 36/11 A2987 RMK A01 T03560107  RH  022%=      5-min Rain = 0
KLA1 122218Z 36003KT 36/11 A2987 RMK A01 T03570108  RH  022%=      5-min Rain = 0
KLA1 122219Z 01004KT 36/11 A2987 RMK A01 T03590108  RH  022%=      5-min Rain = 0
KLA1 122220Z 01005KT 36/11 A2987 RMK A01 T03590109  RH  022%=      5-min Rain = 0
KLA1 122221Z 04004KT 36/11 A2987 RMK A01 T03600109  RH  022%=      5-min Rain = 0
KLA1 122222Z 04004KT 36/11 A2987 RMK A01 T03590106  RH  022%=      5-min Rain = 0
KLA1 122223Z 01004KT 36/11 A2987 RMK A01 T03560107  RH  022%=      5-min Rain = 0
KLA1 122224Z 32008KT 36/11 A2987 RMK A01 T03550105  RH  022%=      5-min Rain = 0
KLA1 122225Z 33006KT 36/10 A2987 RMK A01 T03570102  RH  021%=      5-min Rain = 0
KLA1 122226Z 34006KT 36/11 A2987 RMK A01 T03590105  RH  021%=      5-min Rain = 0
KLA1 122227Z 35008KT 36/11 A2987 RMK A01 T03600106  RH  021%=      5-min Rain = 0
KLA1 122228Z 35004KT 36/11 A2987 RMK A01 T03600105  RH  021%=      5-min Rain = 0
KLA1 122229Z 33004KT 36/11 A2987 RMK A01 T03590105  RH  021%=      5-min Rain = 0
KLA1 122230Z 34004KT 36/11 A2987 RMK A01 T03590105  RH  021%=      5-min Rain = 0
KLA1 122231Z 34006KT 36/11 A2987 RMK A01 T03600107  RH  022%=      5-min Rain = 0
KLA1 122232Z 33006KT 36/11 A2987 RMK A01 T03620108  RH  022%=      5-min Rain = 0
KLA1 122233Z 33005KT 36/11 A2987 RMK A01 T03620105  RH  021%=      5-min Rain = 0
KLA1 122234Z 30005KT 36/11 A2987 RMK A01 T03600105  RH  021%=      5-min Rain = 0
KLA1 122235Z 32007KT 36/11 A2987 RMK A01 T03590106  RH  022%=      5-min Rain = 0
KLA1 122236Z 32009KT 36/11 A2987 RMK A01 T03600107  RH  022%=      5-min Rain = 0
KLA1 122237Z 33007KT 36/11 A2987 RMK A01 T03600107  RH  022%=      5-min Rain = 0
KLA1 122238Z 31008KT 36/11 A2987 RMK A01 T03590107  RH  022%=      5-min Rain = 0
KLA1 122239Z 33008KT 36/11 A2987 RMK A01 T03590106  RH  022%=      5-min Rain = 0
KLA1 122240Z 34005KT 36/11 A2987 RMK A01 T03570105  RH  022%=      5-min Rain = 0
KLA1 122241Z 33005KT 36/11 A2987 RMK A01 T03560105  RH  022%=      5-min Rain = 0
KLA1 122242Z 00003KT 36/11 A2987 RMK A01 T03560106  RH  022%=      5-min Rain = 0
KLA1 122243Z 00004KT 36/11 A2987 RMK A01 T03560106  RH  022%=      5-min Rain = 0
KLA1 122244Z 36004KT 36/10 A2987 RMK A01 T03560104  RH  022%=      5-min Rain = 0
KLA1 122245Z 01003KT 36/11 A2987 RMK A01 T03560105  RH  022%=      5-min Rain = 0
KLA1 122246Z 01005KT 36/11 A2987 RMK A01 T03560106  RH  022%=      5-min Rain = 0
KLA1 122247Z 02003KT 36/11 A2987 RMK A01 T03560105  RH  022%=      5-min Rain = 0
KLA1 122248Z 04002KT 36/10 A2987 RMK A01 T03550104  RH  022%=      5-min Rain = 0
KLA1 122249Z 02004KT 36/11 A2987 RMK A01 T03550107  RH  022%=      5-min Rain = 0
KLA1 122250Z 04003KT 36/11 A2987 RMK A01 T03550106  RH  022%=      5-min Rain = 0
KLA1 122251Z 01003KT 36/11 A2987 RMK A01 T03550105  RH  022%=      5-min Rain = 0
KLA1 122252Z 02003KT 36/11 A2987 RMK A01 T03550106  RH  022%=      5-min Rain = 0
KLA1 122253Z 00003KT 35/11 A2987 RMK A01 T03540108  RH  022%=      5-min Rain = 0
KLA1 122254Z 00005KT 36/11 A2986 RMK A01 T03550105  RH  022%=      5-min Rain = 0
KLA1 122255Z 35004KT 36/11 A2986 RMK A01 T03550105  RH  022%=      5-min Rain = 0
KLA1 122256Z 00004KT 36/11 A2986 RMK A01 T03560105  RH  022%=      5-min Rain = 0
KLA1 122257Z 00005KT 36/11 A2986 RMK A01 T03560105  RH  022%=      5-min Rain = 0
KLA1 122258Z 35007KT 36/11 A2986 RMK A01 T03560106  RH  022%=      5-min Rain = 0
KLA1 122259Z 01009KT 36/11 A2986 RMK A01 T03560107  RH  022%=      5-min Rain = 0
KLA1 122300Z 01009KT 36/11 A2986 RMK A01 T03570106  RH  022%=      5-min Rain = 0
KLA1 122301Z 02006KT 36/10 A2986 RMK A01 T03550104  RH  022%=      5-min Rain = 0
KLA1 122302Z 01004KT 35/10 A2986 RMK A01 T03540104  RH  022%=      5-min Rain = 0
KLA1 122303Z 01007KT 35/11 A2986 RMK A01 T03530106  RH  022%=      5-min Rain = 0
KLA1 122304Z 02007KT 35/11 A2987 RMK A01 T03530107  RH  022%=      5-min Rain = 0
KLA1 122305Z 02006KT 35/11 A2987 RMK A01 T03540106  RH  022%=      5-min Rain = 0
KLA1 122306Z 03005KT 35/11 A2987 RMK A01 T03540106  RH  022%=      5-min Rain = 0
KLA1 122307Z 06003KT 35/11 A2986 RMK A01 T03540105  RH  022%=      5-min Rain = 0
KLA1 122308Z 02003KT 35/11 A2986 RMK A01 T03530107  RH  022%=      5-min Rain = 0
KLA1 122309Z 31003G9KT 35/11 A2987 RMK A01 T03540105  RH  022%=      5-min Rain = 0
KLA1 122310Z 32006KT 36/11 A2987 RMK A01 T03560105  RH  022%=      5-min Rain = 0
KLA1 122311Z 35004KT 36/11 A2987 RMK A01 T03570106  RH  022%=      5-min Rain = 0
KLA1 122312Z 35004KT 36/11 A2987 RMK A01 T03570105  RH  022%=      5-min Rain = 0
KLA1 122313Z 34005KT 36/11 A2987 RMK A01 T03570106  RH  022%=      5-min Rain = 0
KLA1 122314Z 31004KT 36/10 A2987 RMK A01 T03560104  RH  022%=      5-min Rain = 0
KLA1 122315Z 30005KT 36/10 A2986 RMK A01 T03560103  RH  022%=      5-min Rain = 0
KLA1 122316Z 30004KT 36/10 A2986 RMK A01 T03560103  RH  022%=      5-min Rain = 0
KLA1 122317Z 32002KT 36/10 A2986 RMK A01 T03560103  RH  022%=      5-min Rain = 0
KLA1 122318Z 01005KT 36/10 A2986 RMK A01 T03550103  RH  022%=      5-min Rain = 0
KLA1 122319Z 36007KT 35/11 A2986 RMK A01 T03540106  RH  022%=      5-min Rain = 0
KLA1 122320Z 35007KT 35/11 A2986 RMK A01 T03540105  RH  022%=      5-min Rain = 0
KLA1 122321Z 35005KT 35/10 A2986 RMK A01 T03530104  RH  022%=      5-min Rain = 0
KLA1 122322Z 35006KT 35/11 A2986 RMK A01 T03530105  RH  022%=      5-min Rain = 0
KLA1 122323Z 35006KT 35/11 A2986 RMK A01 T03520105  RH  022%=      5-min Rain = 0
KLA1 122324Z 34005KT 35/11 A2986 RMK A01 T03530105  RH  022%=      5-min Rain = 0
KLA1 122325Z 36006KT 35/11 A2986 RMK A01 T03520106  RH  022%=      5-min Rain = 0
KLA1 122326Z 00008KT 35/11 A2987 RMK A01 T03520106  RH  022%=      5-min Rain = 0
KLA1 122327Z 00005KT 35/11 A2987 RMK A01 T03520106  RH  022%=      5-min Rain = 0
KLA1 122328Z 05004KT 35/11 A2987 RMK A01 T03510106  RH  023%=      5-min Rain = 0
KLA1 122329Z 03006KT 35/11 A2987 RMK A01 T03510107  RH  023%=      5-min Rain = 0
KLA1 122330Z 03005KT 35/11 A2987 RMK A01 T03510107  RH  023%=      5-min Rain = 0
KLA1 122331Z 02004KT 35/11 A2987 RMK A01 T03500107  RH  023%=      5-min Rain = 0
KLA1 122332Z 01005KT 35/11 A2987 RMK A01 T03500107  RH  023%=      5-min Rain = 0
KLA1 122333Z 02006KT 35/11 A2987 RMK A01 T03490106  RH  023%=      5-min Rain = 0
KLA1 122334Z 00002KT 35/11 A2986 RMK A01 T03490107  RH  023%=      5-min Rain = 0
KLA1 122335Z 03000KT 35/11 A2986 RMK A01 T03490106  RH  023%=      5-min Rain = 0
KLA1 122336Z 05000KT 35/11 A2986 RMK A01 T03490106  RH  023%=      5-min Rain = 0
KLA1 122337Z 02001KT 35/11 A2986 RMK A01 T03500105  RH  023%=      5-min Rain = 0
KLA1 122338Z 00001KT 35/11 A2986 RMK A01 T03510106  RH  023%=      5-min Rain = 0
KLA1 122339Z 33002KT 35/11 A2986 RMK A01 T03510107  RH  023%=      5-min Rain = 0
KLA1 122340Z 35002KT 35/11 A2986 RMK A01 T03520107  RH  023%=      5-min Rain = 0
KLA1 122341Z 03003KT 35/11 A2986 RMK A01 T03520109  RH  023%=      5-min Rain = 0
KLA1 122342Z 03003KT 35/11 A2986 RMK A01 T03520110  RH  023%=      5-min Rain = 0
KLA1 122343Z 01002KT 35/11 A2986 RMK A01 T03520111  RH  023%=      5-min Rain = 0
KLA1 122344Z 35006KT 35/11 A2986 RMK A01 T03520109  RH  023%=      5-min Rain = 0
KLA1 122345Z 34006KT 35/11 A2986 RMK A01 T03510108  RH  023%=      5-min Rain = 0
KLA1 122346Z 34005KT 35/11 A2986 RMK A01 T03510108  RH  023%=      5-min Rain = 0
KLA1 122347Z 35005KT 35/11 A2986 RMK A01 T03510108  RH  023%=      5-min Rain = 0
KLA1 122348Z 36006KT 35/11 A2986 RMK A01 T03500107  RH  023%=      5-min Rain = 0
KLA1 122349Z 35007KT 35/11 A2986 RMK A01 T03500107  RH  023%=      5-min Rain = 0
KLA1 122350Z 34006KT 35/11 A2986 RMK A01 T03490106  RH  023%=      5-min Rain = 0
KLA1 122351Z 35006KT 35/11 A2986 RMK A01 T03480106  RH  023%=      5-min Rain = 0
KLA1 122352Z 35005KT 35/11 A2986 RMK A01 T03480105  RH  023%=      5-min Rain = 0
KLA1 122353Z 35006KT 35/11 A2986 RMK A01 T03470106  RH  023%=      5-min Rain = 0
KLA1 122354Z 34005KT 35/11 A2986 RMK A01 T03480106  RH  023%=      5-min Rain = 0
KLA1 122355Z 35002KT 35/11 A2986 RMK A01 T03470106  RH  023%=      5-min Rain = 0
KLA1 122356Z 33003KT 35/11 A2986 RMK A01 T03470106  RH  023%=      5-min Rain = 0
KLA1 122357Z 32003KT 35/11 A2986 RMK A01 T03470105  RH  023%=      5-min Rain = 0
KLA1 122358Z 32004KT 35/11 A2986 RMK A01 T03470105  RH  023%=      5-min Rain = 0
KLA1 122359Z 32004KT 35/11 A2986 RMK A01 T03480105  RH  023%=      5-min Rain = 0
KLA1 130000Z 32005KT 35/11 A2986 RMK A01 T03480105  RH  023%=      5-min Rain = 0
KLA1 130001Z 00003KT 35/11 A2986 RMK A01 T03480106  RH  023%=      5-min Rain = 0
KLA1 130002Z 01003KT 35/11 A2986 RMK A01 T03480108  RH  023%=      5-min Rain = 0
KLA1 130003Z 00004KT 35/11 A2986 RMK A01 T03470109  RH  023%=      5-min Rain = 0
KLA1 130004Z 35005KT 35/11 A2986 RMK A01 T03460105  RH  023%=      5-min Rain = 0
KLA1 130005Z 00004KT 35/11 A2986 RMK A01 T03460106  RH  023%=      5-min Rain = 0
KLA1 130006Z 36005KT 35/11 A2986 RMK A01 T03450106  RH  023%=      5-min Rain = 0
KLA1 130007Z 35005KT 34/11 A2986 RMK A01 T03440106  RH  024%=      5-min Rain = 0
KLA1 130008Z 36006KT 34/10 A2986 RMK A01 T03430104  RH  023%=      5-min Rain = 0
KLA1 130009Z 35005KT 34/10 A2986 RMK A01 T03430104  RH  023%=      5-min Rain = 0
KLA1 130010Z 35004KT 34/10 A2986 RMK A01 T03420104  RH  023%=      5-min Rain = 0
KLA1 130011Z 00005KT 34/11 A2986 RMK A01 T03420105  RH  024%=      5-min Rain = 0
KLA1 130012Z 36005KT 34/11 A2986 RMK A01 T03420106  RH  024%=      5-min Rain = 0
KLA1 130013Z 36005KT 34/11 A2986 RMK A01 T03420105  RH  024%=      5-min Rain = 0
KLA1 130014Z 35004KT 34/11 A2986 RMK A01 T03410105  RH  024%=      5-min Rain = 0
KLA1 130015Z 00004KT 34/11 A2986 RMK A01 T03410106  RH  024%=      5-min Rain = 0
KLA1 130016Z 00003KT 34/11 A2986 RMK A01 T03400106  RH  024%=      5-min Rain = 0
KLA1 130017Z 36003KT 34/11 A2986 RMK A01 T03400107  RH  024%=      5-min Rain = 0
KLA1 130018Z 36003KT 34/11 A2986 RMK A01 T03390108  RH  024%=      5-min Rain = 0
KLA1 130019Z 35006KT 34/11 A2986 RMK A01 T03380106  RH  024%=      5-min Rain = 0
KLA1 130020Z 36004KT 34/11 A2986 RMK A01 T03390106  RH  024%=      5-min Rain = 0
KLA1 130021Z 36005KT 34/11 A2986 RMK A01 T03380107  RH  024%=      5-min Rain = 0
KLA1 130022Z 35005KT 34/11 A2986 RMK A01 T03380106  RH  024%=      5-min Rain = 0
KLA1 130023Z 35006KT 34/11 A2986 RMK A01 T03380106  RH  024%=      5-min Rain = 0
KLA1 130024Z 36006KT 34/11 A2986 RMK A01 T03370105  RH  024%=      5-min Rain = 0
KLA1 130025Z 35005KT 34/11 A2986 RMK A01 T03370106  RH  024%=      5-min Rain = 0
KLA1 130026Z 35005KT 34/11 A2986 RMK A01 T03370106  RH  025%=      5-min Rain = 0
KLA1 130027Z 35005KT 34/11 A2986 RMK A01 T03360106  RH  025%=      5-min Rain = 0
KLA1 130028Z 35004KT 34/11 A2986 RMK A01 T03360106  RH  025%=      5-min Rain = 0
KLA1 130029Z 35004KT 34/11 A2985 RMK A01 T03350107  RH  025%=      5-min Rain = 0
KLA1 130030Z 35004KT 34/11 A2985 RMK A01 T03350107  RH  025%=      5-min Rain = 0
KLA1 130031Z 35004KT 33/11 A2985 RMK A01 T03340107  RH  025%=      5-min Rain = 0
KLA1 130032Z 34004KT 33/11 A2985 RMK A01 T03330107  RH  025%=      5-min Rain = 0
KLA1 130033Z 35003KT 33/11 A2985 RMK A01 T03330107  RH  025%=      5-min Rain = 0
KLA1 130034Z 35003KT 33/11 A2985 RMK A01 T03320107  RH  025%=      5-min Rain = 0
KLA1 130035Z 34003KT 33/11 A2985 RMK A01 T03320108  RH  025%=      5-min Rain = 0
KLA1 130036Z 35003KT 33/11 A2985 RMK A01 T03310109  RH  026%=      5-min Rain = 0
KLA1 130037Z 35002KT 33/11 A2985 RMK A01 T03300109  RH  026%=      5-min Rain = 0
KLA1 130038Z 00002KT 33/11 A2985 RMK A01 T03290109  RH  026%=      5-min Rain = 0
KLA1 130039Z 36003KT 33/11 A2985 RMK A01 T03290109  RH  026%=      5-min Rain = 0
KLA1 130040Z 00003KT 33/11 A2985 RMK A01 T03280108  RH  026%=      5-min Rain = 0
KLA1 130041Z 00003KT 33/11 A2985 RMK A01 T03270109  RH  026%=      5-min Rain = 0
KLA1 130042Z 01003KT 33/11 A2985 RMK A01 T03260109  RH  027%=      5-min Rain = 0
KLA1 130043Z 01003KT 32/11 A2985 RMK A01 T03240109  RH  027%=      5-min Rain = 0
KLA1 130044Z 02003KT 32/11 A2985 RMK A01 T03230110  RH  027%=      5-min Rain = 0
KLA1 130045Z 01003KT 32/11 A2985 RMK A01 T03210111  RH  028%=      5-min Rain = 0
KLA1 130046Z 01003KT 32/11 A2985 RMK A01 T03200111  RH  028%=      5-min Rain = 0
KLA1 130047Z 00003KT 32/11 A2985 RMK A01 T03180111  RH  028%=      5-min Rain = 0
KLA1 130048Z 01003KT 32/11 A2985 RMK A01 T03170109  RH  028%=      5-min Rain = 0
KLA1 130049Z 02003KT 32/11 A2985 RMK A01 T03170109  RH  028%=      5-min Rain = 0
KLA1 130050Z 02003KT 32/11 A2985 RMK A01 T03160112  RH  029%=      5-min Rain = 0
KLA1 130051Z 02003KT 31/11 A2985 RMK A01 T03140112  RH  029%=      5-min Rain = 0
KLA1 130052Z 02004KT 31/11 A2985 RMK A01 T03130113  RH  029%=      5-min Rain = 0
KLA1 130053Z 02004KT 31/11 A2985 RMK A01 T03120114  RH  030%=      5-min Rain = 0
KLA1 130054Z 02004KT 31/12 A2985 RMK A01 T03100115  RH  030%=      5-min Rain = 0
KLA1 130055Z 02004KT 31/11 A2985 RMK A01 T03080114  RH  030%=      5-min Rain = 0
KLA1 130056Z 02004KT 31/11 A2985 RMK A01 T03060113  RH  031%=      5-min Rain = 0
KLA1 130057Z 02005KT 31/11 A2985 RMK A01 T03050114  RH  031%=      5-min Rain = 0
KLA1 130058Z 02005KT 31/11 A2985 RMK A01 T03050113  RH  031%=      5-min Rain = 0
KLA1 130059Z 02004KT 30/11 A2985 RMK A01 T03040113  RH  031%=      5-min Rain = 0
KLA1 130100Z 02004KT 30/11 A2985 RMK A01 T03040114  RH  031%=      5-min Rain = 0
KLA1 130101Z 01005KT 30/11 A2985 RMK A01 T03030114  RH  031%=      5-min Rain = 0
KLA1 130102Z 02005KT 30/11 A2985 RMK A01 T03030114  RH  031%=      5-min Rain = 0
KLA1 130103Z 02005KT 30/11 A2985 RMK A01 T03030113  RH  031%=      5-min Rain = 0
KLA1 130104Z 03005KT 30/11 A2985 RMK A01 T03020113  RH  031%=      5-min Rain = 0
KLA1 130105Z 01005KT 30/11 A2985 RMK A01 T03010113  RH  031%=      5-min Rain = 0
KLA1 130106Z 01005KT 30/11 A2985 RMK A01 T03010113  RH  031%=      5-min Rain = 0
KLA1 130107Z 01005KT 30/11 A2985 RMK A01 T03000113  RH  031%=      5-min Rain = 0
KLA1 130108Z 02005KT 30/11 A2985 RMK A01 T03000113  RH  032%=      5-min Rain = 0
KLA1 130109Z 02005KT 30/11 A2985 RMK A01 T02990113  RH  032%=      5-min Rain = 0
KLA1 130110Z 02005KT 30/11 A2985 RMK A01 T02980113  RH  032%=      5-min Rain = 0
KLA1 130111Z 02005KT 30/11 A2985 RMK A01 T02980112  RH  032%=      5-min Rain = 0
KLA1 130112Z 02005KT 30/11 A2985 RMK A01 T02980113  RH  032%=      5-min Rain = 0
KLA1 130113Z 01005KT 30/11 A2985 RMK A01 T02980112  RH  032%=      5-min Rain = 0
KLA1 130114Z 02005KT 30/11 A2985 RMK A01 T02980112  RH  032%=      5-min Rain = 0
KLA1 130115Z 01006KT 30/11 A2985 RMK A01 T02980112  RH  032%=      5-min Rain = 0
KLA1 130116Z 01005KT 30/11 A2985 RMK A01 T02980111  RH  031%=      5-min Rain = 0
KLA1 130117Z 02006KT 30/11 A2985 RMK A01 T02980111  RH  031%=      5-min Rain = 0
KLA1 130118Z 02006KT 30/11 A2985 RMK A01 T02980110  RH  031%=      5-min Rain = 0
KLA1 130119Z 02006KT 30/11 A2986 RMK A01 T02980110  RH  031%=      5-min Rain = 0
KLA1 130120Z 02006KT 30/11 A2986 RMK A01 T02980111  RH  031%=      5-min Rain = 0
KLA1 130121Z 02006KT 30/11 A2986 RMK A01 T02980111  RH  031%=      5-min Rain = 0
KLA1 130122Z 02006KT 30/11 A2986 RMK A01 T02980111  RH  031%=      5-min Rain = 0
KLA1 130123Z 01005KT 30/11 A2986 RMK A01 T02970111  RH  032%=      5-min Rain = 0
KLA1 130124Z 01006KT 30/11 A2986 RMK A01 T02970111  RH  032%=      5-min Rain = 0
KLA1 130125Z 01006KT 30/11 A2986 RMK A01 T02960110  RH  032%=      5-min Rain = 0
KLA1 130126Z 02006KT 30/11 A2986 RMK A01 T02960109  RH  031%=      5-min Rain = 0
KLA1 130127Z 02005KT 30/11 A2986 RMK A01 T02960109  RH  031%=      5-min Rain = 0
KLA1 130128Z 02005KT 30/11 A2986 RMK A01 T02960109  RH  031%=      5-min Rain = 0
KLA1 130129Z 01006KT 30/11 A2986 RMK A01 T02960109  RH  031%=      5-min Rain = 0
KLA1 130130Z 01006KT 30/11 A2986 RMK A01 T02960109  RH  031%=      5-min Rain = 0
KLA1 130131Z 01005KT 30/11 A2986 RMK A01 T02960109  RH  031%=      5-min Rain = 0
KLA1 130132Z 02005KT 30/11 A2986 RMK A01 T02960108  RH  031%=      5-min Rain = 0
KLA1 130133Z 02005KT 30/11 A2986 RMK A01 T02960108  RH  031%=      5-min Rain = 0
KLA1 130134Z 01006KT 30/11 A2986 RMK A01 T02960109  RH  031%=      5-min Rain = 0
KLA1 130135Z 02005KT 30/11 A2986 RMK A01 T02960109  RH  031%=      5-min Rain = 0
KLA1 130136Z 02005KT 30/11 A2986 RMK A01 T02950108  RH  031%=      5-min Rain = 0
KLA1 130137Z 03005KT 30/11 A2986 RMK A01 T02950108  RH  031%=      5-min Rain = 0
KLA1 130138Z 02005KT 29/11 A2986 RMK A01 T02940108  RH  032%=      5-min Rain = 0
KLA1 130139Z 03005KT 29/11 A2986 RMK A01 T02930108  RH  032%=      5-min Rain = 0
KLA1 130140Z 02005KT 29/11 A2986 RMK A01 T02930108  RH  032%=      5-min Rain = 0
KLA1 130141Z 02005KT 29/11 A2986 RMK A01 T02920108  RH  032%=      5-min Rain = 0
KLA1 130142Z 02005KT 29/11 A2986 RMK A01 T02920108  RH  032%=      5-min Rain = 0
KLA1 130143Z 02005KT 29/11 A2986 RMK A01 T02910108  RH  032%=      5-min Rain = 0
KLA1 130144Z 02005KT 29/11 A2986 RMK A01 T02910108  RH  032%=      5-min Rain = 0
KLA1 130145Z 02005KT 29/11 A2986 RMK A01 T02900108  RH  032%=      5-min Rain = 0
KLA1 130146Z 02005KT 29/11 A2986 RMK A01 T02900107  RH  032%=      5-min Rain = 0
KLA1 130147Z 02005KT 29/11 A2986 RMK A01 T02910107  RH  032%=      5-min Rain = 0
KLA1 130148Z 02005KT 29/11 A2986 RMK A01 T02910107  RH  032%=      5-min Rain = 0
KLA1 130149Z 03004KT 29/11 A2986 RMK A01 T02910107  RH  032%=      5-min Rain = 0
KLA1 130150Z 02004KT 29/11 A2986 RMK A01 T02910107  RH  032%=      5-min Rain = 0
KLA1 130151Z 02004KT 29/11 A2986 RMK A01 T02900107  RH  032%=      5-min Rain = 0
KLA1 130152Z 02004KT 29/11 A2986 RMK A01 T02900107  RH  032%=      5-min Rain = 0
KLA1 130153Z 02004KT 29/11 A2986 RMK A01 T02900107  RH  032%=      5-min Rain = 0
KLA1 130154Z 02004KT 29/11 A2986 RMK A01 T02900107  RH  032%=      5-min Rain = 0
KLA1 130155Z 02004KT 29/11 A2986 RMK A01 T02890107  RH  032%=      5-min Rain = 0
KLA1 130156Z 02004KT 29/11 A2986 RMK A01 T02890107  RH  032%=      5-min Rain = 0
KLA1 130157Z 02004KT 29/11 A2986 RMK A01 T02890107  RH  032%=      5-min Rain = 0
KLA1 130158Z 01004KT 29/11 A2986 RMK A01 T02890107  RH  032%=      5-min Rain = 0
KLA1 130159Z 01003KT 29/11 A2986 RMK A01 T02890107  RH  032%=      5-min Rain = 0
KLA1 130200Z 01003KT 29/11 A2986 RMK A01 T02890107  RH  032%=      5-min Rain = 0
KLA1 130201Z 01003KT 29/11 A2987 RMK A01 T02890107  RH  032%=      5-min Rain = 0
KLA1 130202Z 01002KT 29/11 A2987 RMK A01 T02880107  RH  032%=      5-min Rain = 0
KLA1 130203Z 00002KT 29/11 A2987 RMK A01 T02880106  RH  032%=      5-min Rain = 0
KLA1 130204Z 00001KT 29/11 A2987 RMK A01 T02890106  RH  032%=      5-min Rain = 0
KLA1 130205Z 26000KT 29/11 A2987 RMK A01 T02900106  RH  032%=      5-min Rain = 0
KLA1 130206Z 24001KT 29/11 A2987 RMK A01 T02910106  RH  032%=      5-min Rain = 0
KLA1 130207Z 26000KT 29/11 A2987 RMK A01 T02920106  RH  032%=      5-min Rain = 0
KLA1 130208Z 30000KT 29/11 A2987 RMK A01 T02920106  RH  031%=      5-min Rain = 0
KLA1 130209Z 26001KT 29/11 A2987 RMK A01 T02920107  RH  032%=      5-min Rain = 0
KLA1 130210Z 27000KT 29/11 A2987 RMK A01 T02930108  RH  032%=      5-min Rain = 0
KLA1 130211Z 26001KT 29/11 A2987 RMK A01 T02930109  RH  032%=      5-min Rain = 0
KLA1 130212Z 27001KT 29/11 A2987 RMK A01 T02930110  RH  032%=      5-min Rain = 0
KLA1 130213Z 25002KT 29/11 A2987 RMK A01 T02930110  RH  032%=      5-min Rain = 0
KLA1 130214Z 22001KT 29/11 A2987 RMK A01 T02930109  RH  032%=      5-min Rain = 0
KLA1 130215Z 23001KT 29/11 A2987 RMK A01 T02920109  RH  032%=      5-min Rain = 0
KLA1 130216Z 28001KT 29/11 A2987 RMK A01 T02920109  RH  032%=      5-min Rain = 0
KLA1 130217Z 26002KT 29/11 A2987 RMK A01 T02920108  RH  032%=      5-min Rain = 0
KLA1 130218Z 27001KT 29/11 A2987 RMK A01 T02910109  RH  032%=      5-min Rain = 0
KLA1 130219Z 31000KT 29/11 A2987 RMK A01 T02900109  RH  032%=      5-min Rain = 0
KLA1 130220Z 32000KT 29/11 A2987 RMK A01 T02890111  RH  033%=      5-min Rain = 0
KLA1 130221Z 00000KT 29/11 A2987 RMK A01 T02870109  RH  033%=      5-min Rain = 0
KLA1 130222Z 00000KT 29/11 A2987 RMK A01 T02850110  RH  034%=      5-min Rain = 0
KLA1 130223Z 27001KT 28/11 A2987 RMK A01 T02840109  RH  034%=      5-min Rain = 0
KLA1 130224Z 30001KT 28/11 A2987 RMK A01 T02830107  RH  033%=      5-min Rain = 0
KLA1 130225Z 33001KT 28/11 A2987 RMK A01 T02820106  RH  034%=      5-min Rain = 0
KLA1 130226Z 33001KT 28/11 A2987 RMK A01 T02820107  RH  034%=      5-min Rain = 0
KLA1 130227Z 35000KT 28/11 A2987 RMK A01 T02820107  RH  034%=      5-min Rain = 0
KLA1 130228Z 32001KT 28/11 A2987 RMK A01 T02820107  RH  034%=      5-min Rain = 0
KLA1 130229Z 31001KT 28/11 A2987 RMK A01 T02810107  RH  034%=      5-min Rain = 0
KLA1 130230Z 31000KT 28/11 A2987 RMK A01 T02810107  RH  034%=      5-min Rain = 0
KLA1 130231Z 29000KT 28/11 A2987 RMK A01 T02810110  RH  034%=      5-min Rain = 0
KLA1 130232Z 29001KT 28/11 A2987 RMK A01 T02790110  RH  035%=      5-min Rain = 0
KLA1 130233Z 26000KT 28/11 A2987 RMK A01 T02780109  RH  035%=      5-min Rain = 0
KLA1 130234Z 26001KT 28/11 A2987 RMK A01 T02770108  RH  035%=      5-min Rain = 0
KLA1 130235Z 26001KT 28/11 A2987 RMK A01 T02770108  RH  035%=      5-min Rain = 0
KLA1 130236Z 32001KT 28/11 A2987 RMK A01 T02770107  RH  035%=      5-min Rain = 0
KLA1 130237Z 32000KT 28/11 A2987 RMK A01 T02780108  RH  035%=      5-min Rain = 0
KLA1 130238Z 00000KT 28/11 A2987 RMK A01 T02780108  RH  035%=      5-min Rain = 0
KLA1 130239Z 26000KT 28/11 A2987 RMK A01 T02780109  RH  035%=      5-min Rain = 0
KLA1 130240Z 00000KT 28/11 A2987 RMK A01 T02770110  RH  035%=      5-min Rain = 0
KLA1 130241Z 23001KT 28/11 A2987 RMK A01 T02750110  RH  036%=      5-min Rain = 0
KLA1 130242Z 23001KT 27/11 A2987 RMK A01 T02740111  RH  036%=      5-min Rain = 0
KLA1 130243Z 23001KT 27/11 A2987 RMK A01 T02730109  RH  036%=      5-min Rain = 0
KLA1 130244Z 27001KT 27/11 A2987 RMK A01 T02710109  RH  036%=      5-min Rain = 0
KLA1 130245Z 28001KT 27/11 A2987 RMK A01 T02710109  RH  036%=      5-min Rain = 0
KLA1 130246Z 29000KT 27/11 A2987 RMK A01 T02700110  RH  037%=      5-min Rain = 0
KLA1 130247Z 30000KT 27/11 A2987 RMK A01 T02700108  RH  036%=      5-min Rain = 0
KLA1 130248Z 00000KT 27/11 A2987 RMK A01 T02690110  RH  037%=      5-min Rain = 0
KLA1 130249Z 00000KT 27/11 A2987 RMK A01 T02680109  RH  037%=      5-min Rain = 0
KLA1 130250Z 00000KT 27/11 A2987 RMK A01 T02680108  RH  037%=      5-min Rain = 0
KLA1 130251Z 00000KT 27/11 A2987 RMK A01 T02680108  RH  037%=      5-min Rain = 0
KLA1 130252Z 00000KT 27/11 A2987 RMK A01 T02670110  RH  037%=      5-min Rain = 0
KLA1 130253Z 00000KT 27/11 A2987 RMK A01 T02670107  RH  037%=      5-min Rain = 0
KLA1 130254Z 00000KT 27/11 A2987 RMK A01 T02680105  RH  036%=      5-min Rain = 0
KLA1 130255Z 00000KT 27/11 A2987 RMK A01 T02690109  RH  037%=      5-min Rain = 0
KLA1 130256Z 00000KT 27/11 A2987 RMK A01 T02690108  RH  037%=      5-min Rain = 0
KLA1 130257Z 00000KT 27/11 A2987 RMK A01 T02690106  RH  036%=      5-min Rain = 0
KLA1 130258Z 26000KT 27/10 A2987 RMK A01 T02700104  RH  035%=      5-min Rain = 0
KLA1 130259Z 26000KT 27/10 A2987 RMK A01 T02720104  RH  035%=      5-min Rain = 0
KLA1 130300Z 00000KT 27/11 A2987 RMK A01 T02740105  RH  035%=      5-min Rain = 0
KLA1 130301Z 26001KT 28/10 A2987 RMK A01 T02750104  RH  034%=      5-min Rain = 0
KLA1 130302Z 29003KT 28/11 A2987 RMK A01 T02760106  RH  035%=      5-min Rain = 0
KLA1 130303Z 28002KT 28/11 A2987 RMK A01 T02760107  RH  035%=      5-min Rain = 0
KLA1 130304Z 29002KT 28/11 A2987 RMK A01 T02750108  RH  035%=      5-min Rain = 0
KLA1 130305Z 29003KT 27/11 A2987 RMK A01 T02730109  RH  036%=      5-min Rain = 0
KLA1 130306Z 30002KT 27/11 A2987 RMK A01 T02720109  RH  036%=      5-min Rain = 0
KLA1 130307Z 30002KT 27/11 A2987 RMK A01 T02700109  RH  036%=      5-min Rain = 0
KLA1 130308Z 29002KT 27/11 A2987 RMK A01 T02690108  RH  037%=      5-min Rain = 0
KLA1 130309Z 29002KT 27/11 A2987 RMK A01 T02680107  RH  037%=      5-min Rain = 0
KLA1 130310Z 28001KT 27/11 A2988 RMK A01 T02680108  RH  037%=      5-min Rain = 0
KLA1 130311Z 29002KT 27/11 A2988 RMK A01 T02680109  RH  037%=      5-min Rain = 0
KLA1 130312Z 29002KT 27/11 A2988 RMK A01 T02670109  RH  037%=      5-min Rain = 0
KLA1 130313Z 28002KT 27/11 A2988 RMK A01 T02660108  RH  037%=      5-min Rain = 0
KLA1 130314Z 28002KT 27/11 A2988 RMK A01 T02650110  RH  038%=      5-min Rain = 0
KLA1 130315Z 28002KT 26/11 A2988 RMK A01 T02640112  RH  039%=      5-min Rain = 0
KLA1 130316Z 30002KT 26/11 A2988 RMK A01 T02610111  RH  039%=      5-min Rain = 0
KLA1 130317Z 31002KT 26/11 A2988 RMK A01 T02600110  RH  039%=      5-min Rain = 0
KLA1 130318Z 32002KT 26/11 A2988 RMK A01 T02590111  RH  039%=      5-min Rain = 0
KLA1 130319Z 32002KT 26/11 A2988 RMK A01 T02580109  RH  039%=      5-min Rain = 0
KLA1 130320Z 32002KT 26/11 A2988 RMK A01 T02580108  RH  039%=      5-min Rain = 0
KLA1 130321Z 00001KT 26/11 A2988 RMK A01 T02580107  RH  039%=      5-min Rain = 0
KLA1 130322Z 05002KT 26/11 A2988 RMK A01 T02590109  RH  039%=      5-min Rain = 0
KLA1 130323Z 05002KT 26/11 A2988 RMK A01 T02600109  RH  039%=      5-min Rain = 0
KLA1 130324Z 06002KT 26/11 A2988 RMK A01 T02590108  RH  039%=      5-min Rain = 0
KLA1 130325Z 06002KT 26/11 A2988 RMK A01 T02610106  RH  038%=      5-min Rain = 0
KLA1 130326Z 06002KT 26/11 A2988 RMK A01 T02620107  RH  038%=      5-min Rain = 0
KLA1 130327Z 06002KT 26/11 A2988 RMK A01 T02630106  RH  037%=      5-min Rain = 0
KLA1 130328Z 05002KT 26/11 A2988 RMK A01 T02640107  RH  037%=      5-min Rain = 0
KLA1 130329Z 06002KT 26/11 A2988 RMK A01 T02640108  RH  037%=      5-min Rain = 0
KLA1 130330Z 06002KT 27/11 A2988 RMK A01 T02650108  RH  038%=      5-min Rain = 0
KLA1 130331Z 06001KT 26/11 A2988 RMK A01 T02630109  RH  038%=      5-min Rain = 0
KLA1 130332Z 06001KT 26/11 A2988 RMK A01 T02620109  RH  038%=      5-min Rain = 0
KLA1 130333Z 05001KT 26/11 A2988 RMK A01 T02620107  RH  038%=      5-min Rain = 0
KLA1 130334Z 03002KT 26/11 A2988 RMK A01 T02620106  RH  038%=      5-min Rain = 0
KLA1 130335Z 02002KT 26/11 A2988 RMK A01 T02630107  RH  038%=      5-min Rain = 0
KLA1 130336Z 02001KT 26/11 A2988 RMK A01 T02630108  RH  038%=      5-min Rain = 0
KLA1 130337Z 02001KT 26/11 A2988 RMK A01 T02630109  RH  038%=      5-min Rain = 0
KLA1 130338Z 02001KT 26/11 A2988 RMK A01 T02610111  RH  039%=      5-min Rain = 0
KLA1 130339Z 02001KT 26/11 A2988 RMK A01 T02580111  RH  040%=      5-min Rain = 0
KLA1 130340Z 02001KT 26/11 A2988 RMK A01 T02570108  RH  039%=      5-min Rain = 0
KLA1 130341Z 02001KT 26/11 A2988 RMK A01 T02560110  RH  040%=      5-min Rain = 0
KLA1 130342Z 01001KT 25/11 A2988 RMK A01 T02540109  RH  040%=      5-min Rain = 0
KLA1 130343Z 00001KT 25/11 A2988 RMK A01 T02520109  RH  040%=      5-min Rain = 0
KLA1 130344Z 31001KT 25/11 A2988 RMK A01 T02510109  RH  041%=      5-min Rain = 0
KLA1 130345Z 26002KT 25/11 A2988 RMK A01 T02500112  RH  042%=      5-min Rain = 0
KLA1 130346Z 26002KT 25/11 A2988 RMK A01 T02470111  RH  042%=      5-min Rain = 0
KLA1 130347Z 25002KT 25/11 A2988 RMK A01 T02460111  RH  043%=      5-min Rain = 0
KLA1 130348Z 24002KT 25/11 A2988 RMK A01 T02450111  RH  043%=      5-min Rain = 0
KLA1 130349Z 23001KT 24/11 A2988 RMK A01 T02430111  RH  044%=      5-min Rain = 0
KLA1 130350Z 22001KT 24/11 A2988 RMK A01 T02420112  RH  044%=      5-min Rain = 0
KLA1 130351Z 21000KT 24/11 A2988 RMK A01 T02410111  RH  044%=      5-min Rain = 0
KLA1 130352Z 28000KT 24/11 A2988 RMK A01 T02410111  RH  044%=      5-min Rain = 0
KLA1 130353Z 29000KT 24/11 A2988 RMK A01 T02410111  RH  044%=      5-min Rain = 0
KLA1 130354Z 00000KT 24/11 A2988 RMK A01 T02400112  RH  045%=      5-min Rain = 0
KLA1 130355Z 06001KT 24/11 A2988 RMK A01 T02380111  RH  045%=      5-min Rain = 0
KLA1 130356Z 06003KT 24/11 A2989 RMK A01 T02360110  RH  045%=      5-min Rain = 0
KLA1 130357Z 05002KT 24/11 A2989 RMK A01 T02370108  RH  044%=      5-min Rain = 0
KLA1 130358Z 04001KT 24/11 A2988 RMK A01 T02380108  RH  044%=      5-min Rain = 0
KLA1 130359Z 05002KT 24/11 A2988 RMK A01 T02380108  RH  044%=      5-min Rain = 0
KLA1 130400Z 05002KT 24/11 A2988 RMK A01 T02390108  RH  044%=      5-min Rain = 0
KLA1 130401Z 09003KT 24/11 A2988 RMK A01 T02400107  RH  043%=      5-min Rain = 0
KLA1 130402Z 09002KT 24/11 A2988 RMK A01 T02440107  RH  042%=      5-min Rain = 0
KLA1 130403Z 09002KT 25/11 A2988 RMK A01 T02460108  RH  042%=      5-min Rain = 0
KLA1 130404Z 10004KT 25/11 A2988 RMK A01 T02460109  RH  042%=      5-min Rain = 0
KLA1 130405Z 11004KT 25/11 A2988 RMK A01 T02460107  RH  042%=      5-min Rain = 0
KLA1 130406Z 13003KT 25/11 A2988 RMK A01 T02470107  RH  041%=      5-min Rain = 0
KLA1 130407Z 15003KT 25/11 A2988 RMK A01 T02470108  RH  042%=      5-min Rain = 0
KLA1 130408Z 12003KT 25/11 A2988 RMK A01 T02460108  RH  042%=      5-min Rain = 0
KLA1 130409Z 10004KT 25/11 A2988 RMK A01 T02450107  RH  042%=      5-min Rain = 0
KLA1 130410Z 10005KT 25/11 A2988 RMK A01 T02450106  RH  042%=      5-min Rain = 0
KLA1 130411Z 09006KT 25/11 A2988 RMK A01 T02460106  RH  041%=      5-min Rain = 0
KLA1 130412Z 10006KT 25/11 A2988 RMK A01 T02500105  RH  040%=      5-min Rain = 0
KLA1 130413Z 09005KT 26/11 A2988 RMK A01 T02580106  RH  038%=      5-min Rain = 0
KLA1 130414Z 10006KT 26/11 A2988 RMK A01 T02640105  RH  037%=      5-min Rain = 0
KLA1 130415Z 11008KT 27/11 A2988 RMK A01 T02700106  RH  036%=      5-min Rain = 0
KLA1 130416Z 10007KT 28/11 A2988 RMK A01 T02760105  RH  035%=      5-min Rain = 0
KLA1 130417Z 10007KT 28/11 A2988 RMK A01 T02790106  RH  034%=      5-min Rain = 0
KLA1 130418Z 10005KT 28/11 A2988 RMK A01 T02810106  RH  034%=      5-min Rain = 0
KLA1 130419Z 11006KT 28/11 A2988 RMK A01 T02810105  RH  033%=      5-min Rain = 0
KLA1 130420Z 10006KT 28/11 A2989 RMK A01 T02830106  RH  033%=      5-min Rain = 0
KLA1 130421Z 11005KT 29/11 A2989 RMK A01 T02850106  RH  033%=      5-min Rain = 0
KLA1 130422Z 11006KT 29/11 A2989 RMK A01 T02860106  RH  033%=      5-min Rain = 0
KLA1 130423Z 11007KT 29/11 A2989 RMK A01 T02870106  RH  032%=      5-min Rain = 0
KLA1 130424Z 11007KT 29/11 A2989 RMK A01 T02870106  RH  032%=      5-min Rain = 0
KLA1 130425Z 11006KT 29/11 A2989 RMK A01 T02880106  RH  032%=      5-min Rain = 0
KLA1 130426Z 11005KT 29/11 A2989 RMK A01 T02880106  RH  032%=      5-min Rain = 0
KLA1 130427Z 10006KT 29/11 A2989 RMK A01 T02880106  RH  032%=      5-min Rain = 0
KLA1 130428Z 11007KT 29/11 A2989 RMK A01 T02880106  RH  032%=      5-min Rain = 0
KLA1 130429Z 11005KT 29/11 A2989 RMK A01 T02880106  RH  032%=      5-min Rain = 0
KLA1 130430Z 12006KT 29/11 A2989 RMK A01 T02880107  RH  032%=      5-min Rain = 0
KLA1 130431Z 12005KT 29/11 A2989 RMK A01 T02870107  RH  033%=      5-min Rain = 0
KLA1 130432Z 11007KT 29/11 A2989 RMK A01 T02860106  RH  033%=      5-min Rain = 0
KLA1 130433Z 11008KT 29/11 A2989 RMK A01 T02860106  RH  033%=      5-min Rain = 0
KLA1 130434Z 11008KT 29/11 A2989 RMK A01 T02870107  RH  033%=      5-min Rain = 0
KLA1 130435Z 11008KT 29/11 A2989 RMK A01 T02870107  RH  033%=      5-min Rain = 0
KLA1 130436Z 10008KT 29/11 A2989 RMK A01 T02870106  RH  032%=      5-min Rain = 0
KLA1 130437Z 10007KT 29/11 A2989 RMK A01 T02870106  RH  032%=      5-min Rain = 0
KLA1 130438Z 10007KT 29/11 A2989 RMK A01 T02880107  RH  032%=      5-min Rain = 0
KLA1 130439Z 10008KT 29/11 A2989 RMK A01 T02870107  RH  033%=      5-min Rain = 0
KLA1 130440Z 10009KT 29/11 A2989 RMK A01 T02870107  RH  033%=      5-min Rain = 0
KLA1 130441Z 10008KT 29/11 A2989 RMK A01 T02870107  RH  033%=      5-min Rain = 0
KLA1 130442Z 10007KT 29/11 A2989 RMK A01 T02870107  RH  033%=      5-min Rain = 0
KLA1 130443Z 10007KT 29/11 A2989 RMK A01 T02860107  RH  033%=      5-min Rain = 0
KLA1 130444Z 11009KT 29/11 A2989 RMK A01 T02850107  RH  033%=      5-min Rain = 0
KLA1 130445Z 10009KT 29/11 A2989 RMK A01 T02850107  RH  033%=      5-min Rain = 0
KLA1 130446Z 10008KT 29/11 A2989 RMK A01 T02860107  RH  033%=      5-min Rain = 0
KLA1 130447Z 10008KT 29/11 A2989 RMK A01 T02860107  RH  033%=      5-min Rain = 0
KLA1 130448Z 11008KT 29/11 A2989 RMK A01 T02860107  RH  033%=      5-min Rain = 0
KLA1 130449Z 10006KT 29/11 A2988 RMK A01 T02860107  RH  033%=      5-min Rain = 0
KLA1 130450Z 11007KT 29/11 A2988 RMK A01 T02850107  RH  033%=      5-min Rain = 0
KLA1 130451Z 10007KT 28/11 A2989 RMK A01 T02840107  RH  033%=      5-min Rain = 0
KLA1 130452Z 10008KT 28/11 A2989 RMK A01 T02840107  RH  033%=      5-min Rain = 0
KLA1 130453Z 11006KT 28/11 A2989 RMK A01 T02840107  RH  033%=      5-min Rain = 0
KLA1 130454Z 10006KT 28/11 A2989 RMK A01 T02840107  RH  033%=      5-min Rain = 0
KLA1 130455Z 10006KT 28/11 A2989 RMK A01 T02840107  RH  033%=      5-min Rain = 0
KLA1 130456Z 11006KT 28/11 A2989 RMK A01 T02840107  RH  033%=      5-min Rain = 0
KLA1 130457Z 11005KT 28/11 A2989 RMK A01 T02830107  RH  033%=      5-min Rain = 0
KLA1 130458Z 11007KT 28/11 A2988 RMK A01 T02830107  RH  033%=      5-min Rain = 0
KLA1 130459Z 10008KT 28/11 A2989 RMK A01 T02820107  RH  034%=      5-min Rain = 0

Page generated in 0.0358 seconds.